<?xml version="1.0" encoding="UTF-8" standalone="no" ?>
<gpx xmlns="http://www.topografix.com/GPX/1/1" xmlns:xsi="http://www.w3.org/2001/XMLSchema-instance" xsi:schemaLocation="http://www.topografix.com/GPX/1/1 http://www.topografix.com/GPX/1/1/gpx.xsd" version="1.1" creator="VisuGPX - https://www.visugpx.com">
  <metadata>
    <name>La graviere St Babel</name>
    <desc><![CDATA[Humide l hiver]]></desc>
  </metadata>
  <trk>
    <name><![CDATA[02-MARS-14 11:13:53 AM]]></name>
    <trkseg>
      <trkpt lat="45.58548" lon="3.33836">
        <ele>421.19</ele>
        <time>2014-03-02T08:20:32Z</time>
      </trkpt>
      <trkpt lat="45.58545" lon="3.33835">
        <ele>417.83</ele>
        <time>2014-03-02T08:20:43Z</time>
      </trkpt>
      <trkpt lat="45.58546" lon="3.33836">
        <ele>416.39</ele>
        <time>2014-03-02T08:20:59Z</time>
      </trkpt>
      <trkpt lat="45.58545" lon="3.33837">
        <ele>415.43</ele>
        <time>2014-03-02T08:21:12Z</time>
      </trkpt>
      <trkpt lat="45.58548" lon="3.33839">
        <ele>415.43</ele>
        <time>2014-03-02T08:21:22Z</time>
      </trkpt>
      <trkpt lat="45.58554" lon="3.33842">
        <ele>415.43</ele>
        <time>2014-03-02T08:21:26Z</time>
      </trkpt>
      <trkpt lat="45.5856" lon="3.3383">
        <ele>416.87</ele>
        <time>2014-03-02T08:21:31Z</time>
      </trkpt>
      <trkpt lat="45.58566" lon="3.33815">
        <ele>417.83</ele>
        <time>2014-03-02T08:21:37Z</time>
      </trkpt>
      <trkpt lat="45.5857" lon="3.3379">
        <ele>419.27</ele>
        <time>2014-03-02T08:21:45Z</time>
      </trkpt>
      <trkpt lat="45.58575" lon="3.33769">
        <ele>420.71</ele>
        <time>2014-03-02T08:21:51Z</time>
      </trkpt>
      <trkpt lat="45.58581" lon="3.33771">
        <ele>421.19</ele>
        <time>2014-03-02T08:21:55Z</time>
      </trkpt>
      <trkpt lat="45.58585" lon="3.3378">
        <ele>420.71</ele>
        <time>2014-03-02T08:22:01Z</time>
      </trkpt>
      <trkpt lat="45.58589" lon="3.33778">
        <ele>420.71</ele>
        <time>2014-03-02T08:22:05Z</time>
      </trkpt>
      <trkpt lat="45.58599" lon="3.33774">
        <ele>420.71</ele>
        <time>2014-03-02T08:22:09Z</time>
      </trkpt>
      <trkpt lat="45.58606" lon="3.33762">
        <ele>422.16</ele>
        <time>2014-03-02T08:22:15Z</time>
      </trkpt>
      <trkpt lat="45.58611" lon="3.33759">
        <ele>422.16</ele>
        <time>2014-03-02T08:22:17Z</time>
      </trkpt>
      <trkpt lat="45.58634" lon="3.33745">
        <ele>423.6</ele>
        <time>2014-03-02T08:22:26Z</time>
      </trkpt>
      <trkpt lat="45.58641" lon="3.33736">
        <ele>424.56</ele>
        <time>2014-03-02T08:22:32Z</time>
      </trkpt>
      <trkpt lat="45.58653" lon="3.33726">
        <ele>425.04</ele>
        <time>2014-03-02T08:22:38Z</time>
      </trkpt>
      <trkpt lat="45.58662" lon="3.33719">
        <ele>425.52</ele>
        <time>2014-03-02T08:22:42Z</time>
      </trkpt>
      <trkpt lat="45.58675" lon="3.33709">
        <ele>426.48</ele>
        <time>2014-03-02T08:22:48Z</time>
      </trkpt>
      <trkpt lat="45.58684" lon="3.33699">
        <ele>427.44</ele>
        <time>2014-03-02T08:22:54Z</time>
      </trkpt>
      <trkpt lat="45.58689" lon="3.33692">
        <ele>428.4</ele>
        <time>2014-03-02T08:22:58Z</time>
      </trkpt>
      <trkpt lat="45.58694" lon="3.33687">
        <ele>428.4</ele>
        <time>2014-03-02T08:23:02Z</time>
      </trkpt>
      <trkpt lat="45.58705" lon="3.3368">
        <ele>429.37</ele>
        <time>2014-03-02T08:23:09Z</time>
      </trkpt>
      <trkpt lat="45.58726" lon="3.33666">
        <ele>430.81</ele>
        <time>2014-03-02T08:23:20Z</time>
      </trkpt>
      <trkpt lat="45.58741" lon="3.33657">
        <ele>432.73</ele>
        <time>2014-03-02T08:23:30Z</time>
      </trkpt>
      <trkpt lat="45.58744" lon="3.33654">
        <ele>433.21</ele>
        <time>2014-03-02T08:23:32Z</time>
      </trkpt>
      <trkpt lat="45.58749" lon="3.33652">
        <ele>433.69</ele>
        <time>2014-03-02T08:23:35Z</time>
      </trkpt>
      <trkpt lat="45.58762" lon="3.33652">
        <ele>434.65</ele>
        <time>2014-03-02T08:23:43Z</time>
      </trkpt>
      <trkpt lat="45.58776" lon="3.3365">
        <ele>435.61</ele>
        <time>2014-03-02T08:23:51Z</time>
      </trkpt>
      <trkpt lat="45.58778" lon="3.3365">
        <ele>436.1</ele>
        <time>2014-03-02T08:23:52Z</time>
      </trkpt>
      <trkpt lat="45.58806" lon="3.33647">
        <ele>438.02</ele>
        <time>2014-03-02T08:24:06Z</time>
      </trkpt>
      <trkpt lat="45.58823" lon="3.33639">
        <ele>440.9</ele>
        <time>2014-03-02T08:24:17Z</time>
      </trkpt>
      <trkpt lat="45.58835" lon="3.33629">
        <ele>442.34</ele>
        <time>2014-03-02T08:24:25Z</time>
      </trkpt>
      <trkpt lat="45.58839" lon="3.33628">
        <ele>442.34</ele>
        <time>2014-03-02T08:24:26Z</time>
      </trkpt>
      <trkpt lat="45.58859" lon="3.33612">
        <ele>444.75</ele>
        <time>2014-03-02T08:24:40Z</time>
      </trkpt>
      <trkpt lat="45.58864" lon="3.33602">
        <ele>445.71</ele>
        <time>2014-03-02T08:24:45Z</time>
      </trkpt>
      <trkpt lat="45.58875" lon="3.3359">
        <ele>446.67</ele>
        <time>2014-03-02T08:24:52Z</time>
      </trkpt>
      <trkpt lat="45.58886" lon="3.3357">
        <ele>448.11</ele>
        <time>2014-03-02T08:25:01Z</time>
      </trkpt>
      <trkpt lat="45.58902" lon="3.33548">
        <ele>450.03</ele>
        <time>2014-03-02T08:25:12Z</time>
      </trkpt>
      <trkpt lat="45.58905" lon="3.3354">
        <ele>450.03</ele>
        <time>2014-03-02T08:25:14Z</time>
      </trkpt>
      <trkpt lat="45.58911" lon="3.33531">
        <ele>450.03</ele>
        <time>2014-03-02T08:25:18Z</time>
      </trkpt>
      <trkpt lat="45.58918" lon="3.33519">
        <ele>451</ele>
        <time>2014-03-02T08:25:24Z</time>
      </trkpt>
      <trkpt lat="45.58921" lon="3.33515">
        <ele>451.48</ele>
        <time>2014-03-02T08:25:26Z</time>
      </trkpt>
      <trkpt lat="45.58929" lon="3.33488">
        <ele>452.92</ele>
        <time>2014-03-02T08:25:36Z</time>
      </trkpt>
      <trkpt lat="45.58931" lon="3.33481">
        <ele>453.88</ele>
        <time>2014-03-02T08:25:38Z</time>
      </trkpt>
      <trkpt lat="45.58931" lon="3.33477">
        <ele>453.88</ele>
        <time>2014-03-02T08:25:39Z</time>
      </trkpt>
      <trkpt lat="45.58932" lon="3.33473">
        <ele>454.36</ele>
        <time>2014-03-02T08:25:41Z</time>
      </trkpt>
      <trkpt lat="45.5894" lon="3.33443">
        <ele>456.28</ele>
        <time>2014-03-02T08:25:52Z</time>
      </trkpt>
      <trkpt lat="45.58942" lon="3.33427">
        <ele>457.24</ele>
        <time>2014-03-02T08:25:57Z</time>
      </trkpt>
      <trkpt lat="45.58944" lon="3.33418">
        <ele>457.72</ele>
        <time>2014-03-02T08:26:00Z</time>
      </trkpt>
      <trkpt lat="45.58944" lon="3.33401">
        <ele>459.17</ele>
        <time>2014-03-02T08:26:06Z</time>
      </trkpt>
      <trkpt lat="45.58945" lon="3.3339">
        <ele>460.13</ele>
        <time>2014-03-02T08:26:10Z</time>
      </trkpt>
      <trkpt lat="45.58948" lon="3.33368">
        <ele>461.57</ele>
        <time>2014-03-02T08:26:18Z</time>
      </trkpt>
      <trkpt lat="45.5895" lon="3.33351">
        <ele>462.53</ele>
        <time>2014-03-02T08:26:23Z</time>
      </trkpt>
      <trkpt lat="45.58952" lon="3.33347">
        <ele>463.01</ele>
        <time>2014-03-02T08:26:25Z</time>
      </trkpt>
      <trkpt lat="45.58956" lon="3.33325">
        <ele>463.49</ele>
        <time>2014-03-02T08:26:32Z</time>
      </trkpt>
      <trkpt lat="45.58957" lon="3.33318">
        <ele>464.45</ele>
        <time>2014-03-02T08:26:35Z</time>
      </trkpt>
      <trkpt lat="45.58957" lon="3.33315">
        <ele>464.45</ele>
        <time>2014-03-02T08:26:36Z</time>
      </trkpt>
      <trkpt lat="45.5896" lon="3.33312">
        <ele>464.93</ele>
        <time>2014-03-02T08:26:38Z</time>
      </trkpt>
      <trkpt lat="45.5899" lon="3.33338">
        <ele>464.93</ele>
        <time>2014-03-02T08:26:51Z</time>
      </trkpt>
      <trkpt lat="45.59018" lon="3.3336">
        <ele>464.93</ele>
        <time>2014-03-02T08:27:03Z</time>
      </trkpt>
      <trkpt lat="45.59046" lon="3.33377">
        <ele>464.45</ele>
        <time>2014-03-02T08:27:15Z</time>
      </trkpt>
      <trkpt lat="45.59074" lon="3.33392">
        <ele>462.53</ele>
        <time>2014-03-02T08:27:27Z</time>
      </trkpt>
      <trkpt lat="45.59101" lon="3.33406">
        <ele>461.09</ele>
        <time>2014-03-02T08:27:38Z</time>
      </trkpt>
      <trkpt lat="45.59127" lon="3.33419">
        <ele>461.09</ele>
        <time>2014-03-02T08:27:49Z</time>
      </trkpt>
      <trkpt lat="45.59146" lon="3.3343">
        <ele>460.61</ele>
        <time>2014-03-02T08:27:59Z</time>
      </trkpt>
      <trkpt lat="45.59173" lon="3.33458">
        <ele>461.09</ele>
        <time>2014-03-02T08:28:12Z</time>
      </trkpt>
      <trkpt lat="45.59194" lon="3.33487">
        <ele>461.57</ele>
        <time>2014-03-02T08:28:23Z</time>
      </trkpt>
      <trkpt lat="45.59219" lon="3.33518">
        <ele>462.53</ele>
        <time>2014-03-02T08:28:35Z</time>
      </trkpt>
      <trkpt lat="45.59239" lon="3.33538">
        <ele>462.05</ele>
        <time>2014-03-02T08:28:44Z</time>
      </trkpt>
      <trkpt lat="45.59264" lon="3.33564">
        <ele>462.53</ele>
        <time>2014-03-02T08:28:56Z</time>
      </trkpt>
      <trkpt lat="45.59284" lon="3.33587">
        <ele>462.53</ele>
        <time>2014-03-02T08:29:06Z</time>
      </trkpt>
      <trkpt lat="45.593" lon="3.33608">
        <ele>462.53</ele>
        <time>2014-03-02T08:29:15Z</time>
      </trkpt>
      <trkpt lat="45.59322" lon="3.33632">
        <ele>462.53</ele>
        <time>2014-03-02T08:29:25Z</time>
      </trkpt>
      <trkpt lat="45.59326" lon="3.33636">
        <ele>462.05</ele>
        <time>2014-03-02T08:29:27Z</time>
      </trkpt>
      <trkpt lat="45.59348" lon="3.33657">
        <ele>461.57</ele>
        <time>2014-03-02T08:29:37Z</time>
      </trkpt>
      <trkpt lat="45.5938" lon="3.33684">
        <ele>461.09</ele>
        <time>2014-03-02T08:29:51Z</time>
      </trkpt>
      <trkpt lat="45.59389" lon="3.33691">
        <ele>461.09</ele>
        <time>2014-03-02T08:29:56Z</time>
      </trkpt>
      <trkpt lat="45.59395" lon="3.33691">
        <ele>461.09</ele>
        <time>2014-03-02T08:30:00Z</time>
      </trkpt>
      <trkpt lat="45.59401" lon="3.33691">
        <ele>461.09</ele>
        <time>2014-03-02T08:30:03Z</time>
      </trkpt>
      <trkpt lat="45.59408" lon="3.33661">
        <ele>463.01</ele>
        <time>2014-03-02T08:30:14Z</time>
      </trkpt>
      <trkpt lat="45.59404" lon="3.33635">
        <ele>464.45</ele>
        <time>2014-03-02T08:30:24Z</time>
      </trkpt>
      <trkpt lat="45.59389" lon="3.33598">
        <ele>466.86</ele>
        <time>2014-03-02T08:30:36Z</time>
      </trkpt>
      <trkpt lat="45.59378" lon="3.33569">
        <ele>467.82</ele>
        <time>2014-03-02T08:30:46Z</time>
      </trkpt>
      <trkpt lat="45.59364" lon="3.33537">
        <ele>469.26</ele>
        <time>2014-03-02T08:30:58Z</time>
      </trkpt>
      <trkpt lat="45.59351" lon="3.33505">
        <ele>471.66</ele>
        <time>2014-03-02T08:31:08Z</time>
      </trkpt>
      <trkpt lat="45.59337" lon="3.3347">
        <ele>473.59</ele>
        <time>2014-03-02T08:31:19Z</time>
      </trkpt>
      <trkpt lat="45.59332" lon="3.33451">
        <ele>474.55</ele>
        <time>2014-03-02T08:31:25Z</time>
      </trkpt>
      <trkpt lat="45.59327" lon="3.33419">
        <ele>475.51</ele>
        <time>2014-03-02T08:31:34Z</time>
      </trkpt>
      <trkpt lat="45.59327" lon="3.33381">
        <ele>475.99</ele>
        <time>2014-03-02T08:31:45Z</time>
      </trkpt>
      <trkpt lat="45.59329" lon="3.33367">
        <ele>476.47</ele>
        <time>2014-03-02T08:31:49Z</time>
      </trkpt>
      <trkpt lat="45.5933" lon="3.33346">
        <ele>476.47</ele>
        <time>2014-03-02T08:31:55Z</time>
      </trkpt>
      <trkpt lat="45.59332" lon="3.33317">
        <ele>476.47</ele>
        <time>2014-03-02T08:32:03Z</time>
      </trkpt>
      <trkpt lat="45.59333" lon="3.33313">
        <ele>476.47</ele>
        <time>2014-03-02T08:32:04Z</time>
      </trkpt>
      <trkpt lat="45.59334" lon="3.33306">
        <ele>476.47</ele>
        <time>2014-03-02T08:32:06Z</time>
      </trkpt>
      <trkpt lat="45.59335" lon="3.33292">
        <ele>476.47</ele>
        <time>2014-03-02T08:32:10Z</time>
      </trkpt>
      <trkpt lat="45.59336" lon="3.33282">
        <ele>476.95</ele>
        <time>2014-03-02T08:32:13Z</time>
      </trkpt>
      <trkpt lat="45.59336" lon="3.33257">
        <ele>476.95</ele>
        <time>2014-03-02T08:32:20Z</time>
      </trkpt>
      <trkpt lat="45.59338" lon="3.33216">
        <ele>477.43</ele>
        <time>2014-03-02T08:32:32Z</time>
      </trkpt>
      <trkpt lat="45.59339" lon="3.332">
        <ele>477.43</ele>
        <time>2014-03-02T08:32:36Z</time>
      </trkpt>
      <trkpt lat="45.59345" lon="3.33164">
        <ele>477.43</ele>
        <time>2014-03-02T08:32:46Z</time>
      </trkpt>
      <trkpt lat="45.59345" lon="3.33138">
        <ele>477.43</ele>
        <time>2014-03-02T08:32:53Z</time>
      </trkpt>
      <trkpt lat="45.59346" lon="3.33098">
        <ele>477.43</ele>
        <time>2014-03-02T08:33:04Z</time>
      </trkpt>
      <trkpt lat="45.59347" lon="3.33095">
        <ele>477.91</ele>
        <time>2014-03-02T08:33:05Z</time>
      </trkpt>
      <trkpt lat="45.59348" lon="3.33064">
        <ele>477.91</ele>
        <time>2014-03-02T08:33:13Z</time>
      </trkpt>
      <trkpt lat="45.59349" lon="3.33057">
        <ele>477.91</ele>
        <time>2014-03-02T08:33:15Z</time>
      </trkpt>
      <trkpt lat="45.59348" lon="3.33041">
        <ele>478.39</ele>
        <time>2014-03-02T08:33:19Z</time>
      </trkpt>
      <trkpt lat="45.59349" lon="3.33016">
        <ele>477.91</ele>
        <time>2014-03-02T08:33:26Z</time>
      </trkpt>
      <trkpt lat="45.59344" lon="3.32977">
        <ele>477.43</ele>
        <time>2014-03-02T08:33:36Z</time>
      </trkpt>
      <trkpt lat="45.5934" lon="3.3294">
        <ele>476.95</ele>
        <time>2014-03-02T08:33:46Z</time>
      </trkpt>
      <trkpt lat="45.59338" lon="3.32897">
        <ele>476.95</ele>
        <time>2014-03-02T08:33:58Z</time>
      </trkpt>
      <trkpt lat="45.59338" lon="3.32874">
        <ele>476.47</ele>
        <time>2014-03-02T08:34:05Z</time>
      </trkpt>
      <trkpt lat="45.59346" lon="3.32831">
        <ele>476.95</ele>
        <time>2014-03-02T08:34:16Z</time>
      </trkpt>
      <trkpt lat="45.5935" lon="3.32818">
        <ele>476.47</ele>
        <time>2014-03-02T08:34:20Z</time>
      </trkpt>
      <trkpt lat="45.59358" lon="3.32791">
        <ele>475.99</ele>
        <time>2014-03-02T08:34:28Z</time>
      </trkpt>
      <trkpt lat="45.59366" lon="3.32754">
        <ele>475.51</ele>
        <time>2014-03-02T08:34:39Z</time>
      </trkpt>
      <trkpt lat="45.59372" lon="3.32737">
        <ele>475.03</ele>
        <time>2014-03-02T08:34:44Z</time>
      </trkpt>
      <trkpt lat="45.59377" lon="3.32723">
        <ele>474.07</ele>
        <time>2014-03-02T08:34:48Z</time>
      </trkpt>
      <trkpt lat="45.59377" lon="3.32712">
        <ele>473.11</ele>
        <time>2014-03-02T08:34:52Z</time>
      </trkpt>
      <trkpt lat="45.59382" lon="3.32693">
        <ele>472.63</ele>
        <time>2014-03-02T08:34:57Z</time>
      </trkpt>
      <trkpt lat="45.59388" lon="3.32674">
        <ele>471.66</ele>
        <time>2014-03-02T08:35:02Z</time>
      </trkpt>
      <trkpt lat="45.59393" lon="3.32653">
        <ele>471.18</ele>
        <time>2014-03-02T08:35:08Z</time>
      </trkpt>
      <trkpt lat="45.59396" lon="3.32638">
        <ele>470.7</ele>
        <time>2014-03-02T08:35:12Z</time>
      </trkpt>
      <trkpt lat="45.59405" lon="3.32597">
        <ele>470.22</ele>
        <time>2014-03-02T08:35:23Z</time>
      </trkpt>
      <trkpt lat="45.59407" lon="3.32591">
        <ele>470.22</ele>
        <time>2014-03-02T08:35:25Z</time>
      </trkpt>
      <trkpt lat="45.59415" lon="3.32562">
        <ele>470.22</ele>
        <time>2014-03-02T08:35:34Z</time>
      </trkpt>
      <trkpt lat="45.59422" lon="3.32539">
        <ele>470.7</ele>
        <time>2014-03-02T08:35:41Z</time>
      </trkpt>
      <trkpt lat="45.59428" lon="3.32511">
        <ele>470.7</ele>
        <time>2014-03-02T08:35:49Z</time>
      </trkpt>
      <trkpt lat="45.59434" lon="3.32485">
        <ele>471.18</ele>
        <time>2014-03-02T08:35:57Z</time>
      </trkpt>
      <trkpt lat="45.59439" lon="3.32458">
        <ele>472.63</ele>
        <time>2014-03-02T08:36:05Z</time>
      </trkpt>
      <trkpt lat="45.59444" lon="3.32436">
        <ele>473.59</ele>
        <time>2014-03-02T08:36:12Z</time>
      </trkpt>
      <trkpt lat="45.59449" lon="3.32424">
        <ele>474.55</ele>
        <time>2014-03-02T08:36:16Z</time>
      </trkpt>
      <trkpt lat="45.59454" lon="3.32412">
        <ele>475.03</ele>
        <time>2014-03-02T08:36:20Z</time>
      </trkpt>
      <trkpt lat="45.59461" lon="3.32377">
        <ele>476.95</ele>
        <time>2014-03-02T08:36:32Z</time>
      </trkpt>
      <trkpt lat="45.59468" lon="3.32345">
        <ele>477.91</ele>
        <time>2014-03-02T08:36:42Z</time>
      </trkpt>
      <trkpt lat="45.59471" lon="3.32335">
        <ele>477.91</ele>
        <time>2014-03-02T08:36:45Z</time>
      </trkpt>
      <trkpt lat="45.5948" lon="3.32308">
        <ele>477.91</ele>
        <time>2014-03-02T08:36:54Z</time>
      </trkpt>
      <trkpt lat="45.5949" lon="3.32281">
        <ele>478.87</ele>
        <time>2014-03-02T08:37:03Z</time>
      </trkpt>
      <trkpt lat="45.59495" lon="3.32262">
        <ele>478.87</ele>
        <time>2014-03-02T08:37:09Z</time>
      </trkpt>
      <trkpt lat="45.59496" lon="3.32256">
        <ele>478.87</ele>
        <time>2014-03-02T08:37:11Z</time>
      </trkpt>
      <trkpt lat="45.59499" lon="3.32245">
        <ele>478.87</ele>
        <time>2014-03-02T08:37:15Z</time>
      </trkpt>
      <trkpt lat="45.59502" lon="3.32239">
        <ele>479.35</ele>
        <time>2014-03-02T08:37:17Z</time>
      </trkpt>
      <trkpt lat="45.59524" lon="3.32242">
        <ele>480.32</ele>
        <time>2014-03-02T08:37:26Z</time>
      </trkpt>
      <trkpt lat="45.59551" lon="3.32248">
        <ele>480.8</ele>
        <time>2014-03-02T08:37:38Z</time>
      </trkpt>
      <trkpt lat="45.59574" lon="3.32253">
        <ele>481.28</ele>
        <time>2014-03-02T08:37:48Z</time>
      </trkpt>
      <trkpt lat="45.59598" lon="3.3226">
        <ele>481.76</ele>
        <time>2014-03-02T08:37:59Z</time>
      </trkpt>
      <trkpt lat="45.59623" lon="3.32268">
        <ele>482.24</ele>
        <time>2014-03-02T08:38:09Z</time>
      </trkpt>
      <trkpt lat="45.59625" lon="3.3227">
        <ele>482.72</ele>
        <time>2014-03-02T08:38:10Z</time>
      </trkpt>
      <trkpt lat="45.59653" lon="3.32285">
        <ele>483.2</ele>
        <time>2014-03-02T08:38:22Z</time>
      </trkpt>
      <trkpt lat="45.59675" lon="3.32304">
        <ele>483.68</ele>
        <time>2014-03-02T08:38:33Z</time>
      </trkpt>
      <trkpt lat="45.59693" lon="3.32327">
        <ele>484.16</ele>
        <time>2014-03-02T08:38:43Z</time>
      </trkpt>
      <trkpt lat="45.59705" lon="3.32347">
        <ele>484.16</ele>
        <time>2014-03-02T08:38:51Z</time>
      </trkpt>
      <trkpt lat="45.59723" lon="3.32369">
        <ele>484.64</ele>
        <time>2014-03-02T08:39:01Z</time>
      </trkpt>
      <trkpt lat="45.59744" lon="3.32391">
        <ele>485.6</ele>
        <time>2014-03-02T08:39:12Z</time>
      </trkpt>
      <trkpt lat="45.59767" lon="3.32414">
        <ele>486.08</ele>
        <time>2014-03-02T08:39:23Z</time>
      </trkpt>
      <trkpt lat="45.59769" lon="3.32417">
        <ele>486.08</ele>
        <time>2014-03-02T08:39:24Z</time>
      </trkpt>
      <trkpt lat="45.59781" lon="3.32438">
        <ele>487.05</ele>
        <time>2014-03-02T08:39:32Z</time>
      </trkpt>
      <trkpt lat="45.59799" lon="3.32471">
        <ele>488.49</ele>
        <time>2014-03-02T08:39:45Z</time>
      </trkpt>
      <trkpt lat="45.59811" lon="3.32501">
        <ele>490.41</ele>
        <time>2014-03-02T08:39:56Z</time>
      </trkpt>
      <trkpt lat="45.59816" lon="3.32518">
        <ele>490.89</ele>
        <time>2014-03-02T08:40:02Z</time>
      </trkpt>
      <trkpt lat="45.59837" lon="3.32544">
        <ele>493.77</ele>
        <time>2014-03-02T08:40:15Z</time>
      </trkpt>
      <trkpt lat="45.59852" lon="3.32554">
        <ele>495.22</ele>
        <time>2014-03-02T08:40:23Z</time>
      </trkpt>
      <trkpt lat="45.59873" lon="3.3257">
        <ele>498.1</ele>
        <time>2014-03-02T08:40:35Z</time>
      </trkpt>
      <trkpt lat="45.59876" lon="3.32572">
        <ele>498.58</ele>
        <time>2014-03-02T08:40:37Z</time>
      </trkpt>
      <trkpt lat="45.59898" lon="3.32593">
        <ele>499.54</ele>
        <time>2014-03-02T08:40:48Z</time>
      </trkpt>
      <trkpt lat="45.59919" lon="3.32612">
        <ele>500.98</ele>
        <time>2014-03-02T08:40:59Z</time>
      </trkpt>
      <trkpt lat="45.5993" lon="3.32621">
        <ele>501.95</ele>
        <time>2014-03-02T08:41:05Z</time>
      </trkpt>
      <trkpt lat="45.59943" lon="3.32629">
        <ele>502.91</ele>
        <time>2014-03-02T08:41:12Z</time>
      </trkpt>
      <trkpt lat="45.59945" lon="3.3263">
        <ele>503.39</ele>
        <time>2014-03-02T08:41:14Z</time>
      </trkpt>
      <trkpt lat="45.59961" lon="3.32642">
        <ele>503.87</ele>
        <time>2014-03-02T08:41:23Z</time>
      </trkpt>
      <trkpt lat="45.59965" lon="3.32645">
        <ele>503.87</ele>
        <time>2014-03-02T08:41:25Z</time>
      </trkpt>
      <trkpt lat="45.59981" lon="3.32656">
        <ele>504.35</ele>
        <time>2014-03-02T08:41:32Z</time>
      </trkpt>
      <trkpt lat="45.5999" lon="3.32662">
        <ele>504.83</ele>
        <time>2014-03-02T08:41:37Z</time>
      </trkpt>
      <trkpt lat="45.59999" lon="3.32665">
        <ele>505.31</ele>
        <time>2014-03-02T08:41:41Z</time>
      </trkpt>
      <trkpt lat="45.60005" lon="3.32673">
        <ele>505.79</ele>
        <time>2014-03-02T08:41:45Z</time>
      </trkpt>
      <trkpt lat="45.60017" lon="3.32678">
        <ele>506.75</ele>
        <time>2014-03-02T08:41:51Z</time>
      </trkpt>
      <trkpt lat="45.60025" lon="3.32684">
        <ele>507.23</ele>
        <time>2014-03-02T08:41:55Z</time>
      </trkpt>
      <trkpt lat="45.60045" lon="3.32692">
        <ele>508.67</ele>
        <time>2014-03-02T08:42:04Z</time>
      </trkpt>
      <trkpt lat="45.6005" lon="3.32688">
        <ele>509.64</ele>
        <time>2014-03-02T08:42:07Z</time>
      </trkpt>
      <trkpt lat="45.60052" lon="3.32676">
        <ele>510.6</ele>
        <time>2014-03-02T08:42:12Z</time>
      </trkpt>
      <trkpt lat="45.60051" lon="3.32674">
        <ele>511.08</ele>
        <time>2014-03-02T08:42:13Z</time>
      </trkpt>
      <trkpt lat="45.60055" lon="3.32648">
        <ele>512.52</ele>
        <time>2014-03-02T08:42:24Z</time>
      </trkpt>
      <trkpt lat="45.60054" lon="3.32643">
        <ele>513</ele>
        <time>2014-03-02T08:42:26Z</time>
      </trkpt>
      <trkpt lat="45.60051" lon="3.32624">
        <ele>514.44</ele>
        <time>2014-03-02T08:42:32Z</time>
      </trkpt>
      <trkpt lat="45.60047" lon="3.32587">
        <ele>515.88</ele>
        <time>2014-03-02T08:42:42Z</time>
      </trkpt>
      <trkpt lat="45.60043" lon="3.32556">
        <ele>516.37</ele>
        <time>2014-03-02T08:42:52Z</time>
      </trkpt>
      <trkpt lat="45.60042" lon="3.32542">
        <ele>516.85</ele>
        <time>2014-03-02T08:42:56Z</time>
      </trkpt>
      <trkpt lat="45.60034" lon="3.32496">
        <ele>515.88</ele>
        <time>2014-03-02T08:43:08Z</time>
      </trkpt>
      <trkpt lat="45.60024" lon="3.32462">
        <ele>515.4</ele>
        <time>2014-03-02T08:43:19Z</time>
      </trkpt>
      <trkpt lat="45.60021" lon="3.32423">
        <ele>516.37</ele>
        <time>2014-03-02T08:43:31Z</time>
      </trkpt>
      <trkpt lat="45.60022" lon="3.32411">
        <ele>516.85</ele>
        <time>2014-03-02T08:43:34Z</time>
      </trkpt>
      <trkpt lat="45.60023" lon="3.32394">
        <ele>517.81</ele>
        <time>2014-03-02T08:43:39Z</time>
      </trkpt>
      <trkpt lat="45.60021" lon="3.32363">
        <ele>520.21</ele>
        <time>2014-03-02T08:43:48Z</time>
      </trkpt>
      <trkpt lat="45.60019" lon="3.32322">
        <ele>520.21</ele>
        <time>2014-03-02T08:43:59Z</time>
      </trkpt>
      <trkpt lat="45.60017" lon="3.32289">
        <ele>520.69</ele>
        <time>2014-03-02T08:44:08Z</time>
      </trkpt>
      <trkpt lat="45.60018" lon="3.32271">
        <ele>521.65</ele>
        <time>2014-03-02T08:44:13Z</time>
      </trkpt>
      <trkpt lat="45.60021" lon="3.32242">
        <ele>522.61</ele>
        <time>2014-03-02T08:44:22Z</time>
      </trkpt>
      <trkpt lat="45.60022" lon="3.32232">
        <ele>523.09</ele>
        <time>2014-03-02T08:44:25Z</time>
      </trkpt>
      <trkpt lat="45.60025" lon="3.32197">
        <ele>525.02</ele>
        <time>2014-03-02T08:44:37Z</time>
      </trkpt>
      <trkpt lat="45.60024" lon="3.32193">
        <ele>525.5</ele>
        <time>2014-03-02T08:44:39Z</time>
      </trkpt>
      <trkpt lat="45.60024" lon="3.3219">
        <ele>525.02</ele>
        <time>2014-03-02T08:44:40Z</time>
      </trkpt>
      <trkpt lat="45.60026" lon="3.32175">
        <ele>525.5</ele>
        <time>2014-03-02T08:44:45Z</time>
      </trkpt>
      <trkpt lat="45.60024" lon="3.32153">
        <ele>525.98</ele>
        <time>2014-03-02T08:44:52Z</time>
      </trkpt>
      <trkpt lat="45.60023" lon="3.32139">
        <ele>526.46</ele>
        <time>2014-03-02T08:44:55Z</time>
      </trkpt>
      <trkpt lat="45.60017" lon="3.32102">
        <ele>527.42</ele>
        <time>2014-03-02T08:45:05Z</time>
      </trkpt>
      <trkpt lat="45.60034" lon="3.32095">
        <ele>528.86</ele>
        <time>2014-03-02T08:45:14Z</time>
      </trkpt>
      <trkpt lat="45.60062" lon="3.32094">
        <ele>530.79</ele>
        <time>2014-03-02T08:45:27Z</time>
      </trkpt>
      <trkpt lat="45.60082" lon="3.32093">
        <ele>531.75</ele>
        <time>2014-03-02T08:45:36Z</time>
      </trkpt>
      <trkpt lat="45.60094" lon="3.32092">
        <ele>533.67</ele>
        <time>2014-03-02T08:45:43Z</time>
      </trkpt>
      <trkpt lat="45.60097" lon="3.32094">
        <ele>534.15</ele>
        <time>2014-03-02T08:45:45Z</time>
      </trkpt>
      <trkpt lat="45.60099" lon="3.32094">
        <ele>534.63</ele>
        <time>2014-03-02T08:45:46Z</time>
      </trkpt>
      <trkpt lat="45.60109" lon="3.32094">
        <ele>535.11</ele>
        <time>2014-03-02T08:45:51Z</time>
      </trkpt>
      <trkpt lat="45.60113" lon="3.32095">
        <ele>536.07</ele>
        <time>2014-03-02T08:45:54Z</time>
      </trkpt>
      <trkpt lat="45.60136" lon="3.32096">
        <ele>537.51</ele>
        <time>2014-03-02T08:46:05Z</time>
      </trkpt>
      <trkpt lat="45.6015" lon="3.32099">
        <ele>538.48</ele>
        <time>2014-03-02T08:46:13Z</time>
      </trkpt>
      <trkpt lat="45.60163" lon="3.32103">
        <ele>539.44</ele>
        <time>2014-03-02T08:46:20Z</time>
      </trkpt>
      <trkpt lat="45.60171" lon="3.32108">
        <ele>540.4</ele>
        <time>2014-03-02T08:46:24Z</time>
      </trkpt>
      <trkpt lat="45.60193" lon="3.32121">
        <ele>541.36</ele>
        <time>2014-03-02T08:46:36Z</time>
      </trkpt>
      <trkpt lat="45.60196" lon="3.32122">
        <ele>541.84</ele>
        <time>2014-03-02T08:46:38Z</time>
      </trkpt>
      <trkpt lat="45.60203" lon="3.32126">
        <ele>541.84</ele>
        <time>2014-03-02T08:46:44Z</time>
      </trkpt>
      <trkpt lat="45.6021" lon="3.32136">
        <ele>541.84</ele>
        <time>2014-03-02T08:46:50Z</time>
      </trkpt>
      <trkpt lat="45.60214" lon="3.32142">
        <ele>541.84</ele>
        <time>2014-03-02T08:46:54Z</time>
      </trkpt>
      <trkpt lat="45.60216" lon="3.32146">
        <ele>541.84</ele>
        <time>2014-03-02T08:46:56Z</time>
      </trkpt>
      <trkpt lat="45.60227" lon="3.32151">
        <ele>542.32</ele>
        <time>2014-03-02T08:47:02Z</time>
      </trkpt>
      <trkpt lat="45.60248" lon="3.32165">
        <ele>543.76</ele>
        <time>2014-03-02T08:47:14Z</time>
      </trkpt>
      <trkpt lat="45.60267" lon="3.32174">
        <ele>545.2</ele>
        <time>2014-03-02T08:47:26Z</time>
      </trkpt>
      <trkpt lat="45.60272" lon="3.32177">
        <ele>545.69</ele>
        <time>2014-03-02T08:47:30Z</time>
      </trkpt>
      <trkpt lat="45.60275" lon="3.32179">
        <ele>546.17</ele>
        <time>2014-03-02T08:47:32Z</time>
      </trkpt>
      <trkpt lat="45.60301" lon="3.32191">
        <ele>548.09</ele>
        <time>2014-03-02T08:47:46Z</time>
      </trkpt>
      <trkpt lat="45.60325" lon="3.32179">
        <ele>550.49</ele>
        <time>2014-03-02T08:48:00Z</time>
      </trkpt>
      <trkpt lat="45.60328" lon="3.32169">
        <ele>551.45</ele>
        <time>2014-03-02T08:48:04Z</time>
      </trkpt>
      <trkpt lat="45.60327" lon="3.32162">
        <ele>552.9</ele>
        <time>2014-03-02T08:48:09Z</time>
      </trkpt>
      <trkpt lat="45.60326" lon="3.32155">
        <ele>553.86</ele>
        <time>2014-03-02T08:48:12Z</time>
      </trkpt>
      <trkpt lat="45.60327" lon="3.32146">
        <ele>554.82</ele>
        <time>2014-03-02T08:48:18Z</time>
      </trkpt>
      <trkpt lat="45.6033" lon="3.32133">
        <ele>555.78</ele>
        <time>2014-03-02T08:48:23Z</time>
      </trkpt>
      <trkpt lat="45.6033" lon="3.32122">
        <ele>557.7</ele>
        <time>2014-03-02T08:48:28Z</time>
      </trkpt>
      <trkpt lat="45.60333" lon="3.32109">
        <ele>557.7</ele>
        <time>2014-03-02T08:48:34Z</time>
      </trkpt>
      <trkpt lat="45.60335" lon="3.32098">
        <ele>559.14</ele>
        <time>2014-03-02T08:48:38Z</time>
      </trkpt>
      <trkpt lat="45.60341" lon="3.32088">
        <ele>559.14</ele>
        <time>2014-03-02T08:48:46Z</time>
      </trkpt>
      <trkpt lat="45.60341" lon="3.32082">
        <ele>559.62</ele>
        <time>2014-03-02T08:48:49Z</time>
      </trkpt>
      <trkpt lat="45.60345" lon="3.32075">
        <ele>560.59</ele>
        <time>2014-03-02T08:48:52Z</time>
      </trkpt>
      <trkpt lat="45.60352" lon="3.32055">
        <ele>562.51</ele>
        <time>2014-03-02T08:49:01Z</time>
      </trkpt>
      <trkpt lat="45.60357" lon="3.32045">
        <ele>563.47</ele>
        <time>2014-03-02T08:49:06Z</time>
      </trkpt>
      <trkpt lat="45.60358" lon="3.32039">
        <ele>563.95</ele>
        <time>2014-03-02T08:49:08Z</time>
      </trkpt>
      <trkpt lat="45.60358" lon="3.32032">
        <ele>564.43</ele>
        <time>2014-03-02T08:49:10Z</time>
      </trkpt>
      <trkpt lat="45.60363" lon="3.32028">
        <ele>564.43</ele>
        <time>2014-03-02T08:49:13Z</time>
      </trkpt>
      <trkpt lat="45.60372" lon="3.32009">
        <ele>565.39</ele>
        <time>2014-03-02T08:49:23Z</time>
      </trkpt>
      <trkpt lat="45.60374" lon="3.31993">
        <ele>565.39</ele>
        <time>2014-03-02T08:49:28Z</time>
      </trkpt>
      <trkpt lat="45.60378" lon="3.31977">
        <ele>565.39</ele>
        <time>2014-03-02T08:49:35Z</time>
      </trkpt>
      <trkpt lat="45.60379" lon="3.31968">
        <ele>565.87</ele>
        <time>2014-03-02T08:49:38Z</time>
      </trkpt>
      <trkpt lat="45.60383" lon="3.31951">
        <ele>566.83</ele>
        <time>2014-03-02T08:49:46Z</time>
      </trkpt>
      <trkpt lat="45.60386" lon="3.31943">
        <ele>566.83</ele>
        <time>2014-03-02T08:49:49Z</time>
      </trkpt>
      <trkpt lat="45.60388" lon="3.31933">
        <ele>567.8</ele>
        <time>2014-03-02T08:49:53Z</time>
      </trkpt>
      <trkpt lat="45.60389" lon="3.31922">
        <ele>568.28</ele>
        <time>2014-03-02T08:49:57Z</time>
      </trkpt>
      <trkpt lat="45.6039" lon="3.31914">
        <ele>568.76</ele>
        <time>2014-03-02T08:50:00Z</time>
      </trkpt>
      <trkpt lat="45.60395" lon="3.31901">
        <ele>570.2</ele>
        <time>2014-03-02T08:50:05Z</time>
      </trkpt>
      <trkpt lat="45.60407" lon="3.31881">
        <ele>572.6</ele>
        <time>2014-03-02T08:50:16Z</time>
      </trkpt>
      <trkpt lat="45.6041" lon="3.31868">
        <ele>573.56</ele>
        <time>2014-03-02T08:50:21Z</time>
      </trkpt>
      <trkpt lat="45.6041" lon="3.31852">
        <ele>575.01</ele>
        <time>2014-03-02T08:50:28Z</time>
      </trkpt>
      <trkpt lat="45.60419" lon="3.31829">
        <ele>576.45</ele>
        <time>2014-03-02T08:50:40Z</time>
      </trkpt>
      <trkpt lat="45.60423" lon="3.31812">
        <ele>576.93</ele>
        <time>2014-03-02T08:50:47Z</time>
      </trkpt>
      <trkpt lat="45.60425" lon="3.31784">
        <ele>577.89</ele>
        <time>2014-03-02T08:50:57Z</time>
      </trkpt>
      <trkpt lat="45.60433" lon="3.31756">
        <ele>579.33</ele>
        <time>2014-03-02T08:51:09Z</time>
      </trkpt>
      <trkpt lat="45.60434" lon="3.31755">
        <ele>579.33</ele>
        <time>2014-03-02T08:51:10Z</time>
      </trkpt>
      <trkpt lat="45.60437" lon="3.31749">
        <ele>579.33</ele>
        <time>2014-03-02T08:51:12Z</time>
      </trkpt>
      <trkpt lat="45.60453" lon="3.3172">
        <ele>580.77</ele>
        <time>2014-03-02T08:51:25Z</time>
      </trkpt>
      <trkpt lat="45.60457" lon="3.31697">
        <ele>582.7</ele>
        <time>2014-03-02T08:51:35Z</time>
      </trkpt>
      <trkpt lat="45.60458" lon="3.31677">
        <ele>584.14</ele>
        <time>2014-03-02T08:51:46Z</time>
      </trkpt>
      <trkpt lat="45.6046" lon="3.31649">
        <ele>586.54</ele>
        <time>2014-03-02T08:51:55Z</time>
      </trkpt>
      <trkpt lat="45.60461" lon="3.31641">
        <ele>586.54</ele>
        <time>2014-03-02T08:51:58Z</time>
      </trkpt>
      <trkpt lat="45.60461" lon="3.31634">
        <ele>587.02</ele>
        <time>2014-03-02T08:52:02Z</time>
      </trkpt>
      <trkpt lat="45.6046" lon="3.31626">
        <ele>586.54</ele>
        <time>2014-03-02T08:52:05Z</time>
      </trkpt>
      <trkpt lat="45.60461" lon="3.31611">
        <ele>587.5</ele>
        <time>2014-03-02T08:52:11Z</time>
      </trkpt>
      <trkpt lat="45.6046" lon="3.31602">
        <ele>587.98</ele>
        <time>2014-03-02T08:52:14Z</time>
      </trkpt>
      <trkpt lat="45.60462" lon="3.31589">
        <ele>588.95</ele>
        <time>2014-03-02T08:52:19Z</time>
      </trkpt>
      <trkpt lat="45.60463" lon="3.31582">
        <ele>589.43</ele>
        <time>2014-03-02T08:52:22Z</time>
      </trkpt>
      <trkpt lat="45.6046" lon="3.31564">
        <ele>590.39</ele>
        <time>2014-03-02T08:52:29Z</time>
      </trkpt>
      <trkpt lat="45.60459" lon="3.31558">
        <ele>590.87</ele>
        <time>2014-03-02T08:52:31Z</time>
      </trkpt>
      <trkpt lat="45.60457" lon="3.31545">
        <ele>591.35</ele>
        <time>2014-03-02T08:52:36Z</time>
      </trkpt>
      <trkpt lat="45.60461" lon="3.31525">
        <ele>592.79</ele>
        <time>2014-03-02T08:52:46Z</time>
      </trkpt>
      <trkpt lat="45.60464" lon="3.3152">
        <ele>592.79</ele>
        <time>2014-03-02T08:52:50Z</time>
      </trkpt>
      <trkpt lat="45.60468" lon="3.31508">
        <ele>593.27</ele>
        <time>2014-03-02T08:52:54Z</time>
      </trkpt>
      <trkpt lat="45.60471" lon="3.31503">
        <ele>593.75</ele>
        <time>2014-03-02T08:52:56Z</time>
      </trkpt>
      <trkpt lat="45.60476" lon="3.31497">
        <ele>594.23</ele>
        <time>2014-03-02T08:53:00Z</time>
      </trkpt>
      <trkpt lat="45.60482" lon="3.31489">
        <ele>595.67</ele>
        <time>2014-03-02T08:53:06Z</time>
      </trkpt>
      <trkpt lat="45.60484" lon="3.31476">
        <ele>596.15</ele>
        <time>2014-03-02T08:53:10Z</time>
      </trkpt>
      <trkpt lat="45.60487" lon="3.3147">
        <ele>596.15</ele>
        <time>2014-03-02T08:53:14Z</time>
      </trkpt>
      <trkpt lat="45.60503" lon="3.31478">
        <ele>597.6</ele>
        <time>2014-03-02T08:53:29Z</time>
      </trkpt>
      <trkpt lat="45.60513" lon="3.31488">
        <ele>598.56</ele>
        <time>2014-03-02T08:53:36Z</time>
      </trkpt>
      <trkpt lat="45.60518" lon="3.31492">
        <ele>599.04</ele>
        <time>2014-03-02T08:53:41Z</time>
      </trkpt>
      <trkpt lat="45.60529" lon="3.31508">
        <ele>600.96</ele>
        <time>2014-03-02T08:53:54Z</time>
      </trkpt>
      <trkpt lat="45.60531" lon="3.31515">
        <ele>601.44</ele>
        <time>2014-03-02T08:53:58Z</time>
      </trkpt>
      <trkpt lat="45.60536" lon="3.31531">
        <ele>602.4</ele>
        <time>2014-03-02T08:54:07Z</time>
      </trkpt>
      <trkpt lat="45.60543" lon="3.31559">
        <ele>604.81</ele>
        <time>2014-03-02T08:54:23Z</time>
      </trkpt>
      <trkpt lat="45.60548" lon="3.31572">
        <ele>605.77</ele>
        <time>2014-03-02T08:54:31Z</time>
      </trkpt>
      <trkpt lat="45.60553" lon="3.31607">
        <ele>608.17</ele>
        <time>2014-03-02T08:54:45Z</time>
      </trkpt>
      <trkpt lat="45.60562" lon="3.3165">
        <ele>610.57</ele>
        <time>2014-03-02T08:55:00Z</time>
      </trkpt>
      <trkpt lat="45.60578" lon="3.31672">
        <ele>612.02</ele>
        <time>2014-03-02T08:55:14Z</time>
      </trkpt>
      <trkpt lat="45.60583" lon="3.31679">
        <ele>612.5</ele>
        <time>2014-03-02T08:55:18Z</time>
      </trkpt>
      <trkpt lat="45.60601" lon="3.31697">
        <ele>614.42</ele>
        <time>2014-03-02T08:55:31Z</time>
      </trkpt>
      <trkpt lat="45.60625" lon="3.31699">
        <ele>616.82</ele>
        <time>2014-03-02T08:55:46Z</time>
      </trkpt>
      <trkpt lat="45.60648" lon="3.31688">
        <ele>619.23</ele>
        <time>2014-03-02T08:55:59Z</time>
      </trkpt>
      <trkpt lat="45.60668" lon="3.31679">
        <ele>621.15</ele>
        <time>2014-03-02T08:56:14Z</time>
      </trkpt>
      <trkpt lat="45.6069" lon="3.31672">
        <ele>622.11</ele>
        <time>2014-03-02T08:56:24Z</time>
      </trkpt>
      <trkpt lat="45.60705" lon="3.31671">
        <ele>623.07</ele>
        <time>2014-03-02T08:56:33Z</time>
      </trkpt>
      <trkpt lat="45.60713" lon="3.31671">
        <ele>624.03</ele>
        <time>2014-03-02T08:56:38Z</time>
      </trkpt>
      <trkpt lat="45.60728" lon="3.31669">
        <ele>625.47</ele>
        <time>2014-03-02T08:56:47Z</time>
      </trkpt>
      <trkpt lat="45.6074" lon="3.31678">
        <ele>626.44</ele>
        <time>2014-03-02T08:56:57Z</time>
      </trkpt>
      <trkpt lat="45.60771" lon="3.31688">
        <ele>627.88</ele>
        <time>2014-03-02T08:57:14Z</time>
      </trkpt>
      <trkpt lat="45.60776" lon="3.31688">
        <ele>628.36</ele>
        <time>2014-03-02T08:57:18Z</time>
      </trkpt>
      <trkpt lat="45.60805" lon="3.31687">
        <ele>629.32</ele>
        <time>2014-03-02T08:57:30Z</time>
      </trkpt>
      <trkpt lat="45.6081" lon="3.31691">
        <ele>629.32</ele>
        <time>2014-03-02T08:57:33Z</time>
      </trkpt>
      <trkpt lat="45.60817" lon="3.31695">
        <ele>629.8</ele>
        <time>2014-03-02T08:57:37Z</time>
      </trkpt>
      <trkpt lat="45.60834" lon="3.31698">
        <ele>631.24</ele>
        <time>2014-03-02T08:57:49Z</time>
      </trkpt>
      <trkpt lat="45.60853" lon="3.31696">
        <ele>632.68</ele>
        <time>2014-03-02T08:57:57Z</time>
      </trkpt>
      <trkpt lat="45.60873" lon="3.31692">
        <ele>634.13</ele>
        <time>2014-03-02T08:58:10Z</time>
      </trkpt>
      <trkpt lat="45.60881" lon="3.3169">
        <ele>634.61</ele>
        <time>2014-03-02T08:58:18Z</time>
      </trkpt>
      <trkpt lat="45.60908" lon="3.31686">
        <ele>636.53</ele>
        <time>2014-03-02T08:58:31Z</time>
      </trkpt>
      <trkpt lat="45.60917" lon="3.31681">
        <ele>637.97</ele>
        <time>2014-03-02T08:58:39Z</time>
      </trkpt>
      <trkpt lat="45.60937" lon="3.31667">
        <ele>641.34</ele>
        <time>2014-03-02T08:58:54Z</time>
      </trkpt>
      <trkpt lat="45.60957" lon="3.31664">
        <ele>642.3</ele>
        <time>2014-03-02T08:59:07Z</time>
      </trkpt>
      <trkpt lat="45.6096" lon="3.31663">
        <ele>642.78</ele>
        <time>2014-03-02T08:59:09Z</time>
      </trkpt>
      <trkpt lat="45.60972" lon="3.31671">
        <ele>643.74</ele>
        <time>2014-03-02T08:59:16Z</time>
      </trkpt>
      <trkpt lat="45.60981" lon="3.31675">
        <ele>644.22</ele>
        <time>2014-03-02T08:59:20Z</time>
      </trkpt>
      <trkpt lat="45.60995" lon="3.3168">
        <ele>645.18</ele>
        <time>2014-03-02T08:59:30Z</time>
      </trkpt>
      <trkpt lat="45.61013" lon="3.31682">
        <ele>646.62</ele>
        <time>2014-03-02T08:59:46Z</time>
      </trkpt>
      <trkpt lat="45.61036" lon="3.31695">
        <ele>647.59</ele>
        <time>2014-03-02T09:00:02Z</time>
      </trkpt>
      <trkpt lat="45.61041" lon="3.31699">
        <ele>648.07</ele>
        <time>2014-03-02T09:00:05Z</time>
      </trkpt>
      <trkpt lat="45.61065" lon="3.31708">
        <ele>648.55</ele>
        <time>2014-03-02T09:00:18Z</time>
      </trkpt>
      <trkpt lat="45.61081" lon="3.31718">
        <ele>649.03</ele>
        <time>2014-03-02T09:00:27Z</time>
      </trkpt>
      <trkpt lat="45.61099" lon="3.31732">
        <ele>649.03</ele>
        <time>2014-03-02T09:00:38Z</time>
      </trkpt>
      <trkpt lat="45.61114" lon="3.31746">
        <ele>649.03</ele>
        <time>2014-03-02T09:00:48Z</time>
      </trkpt>
      <trkpt lat="45.61123" lon="3.31753">
        <ele>649.03</ele>
        <time>2014-03-02T09:00:54Z</time>
      </trkpt>
      <trkpt lat="45.61137" lon="3.31769">
        <ele>649.03</ele>
        <time>2014-03-02T09:01:08Z</time>
      </trkpt>
      <trkpt lat="45.61138" lon="3.31771">
        <ele>649.03</ele>
        <time>2014-03-02T09:01:09Z</time>
      </trkpt>
      <trkpt lat="45.61143" lon="3.31777">
        <ele>649.51</ele>
        <time>2014-03-02T09:01:12Z</time>
      </trkpt>
      <trkpt lat="45.61147" lon="3.31783">
        <ele>649.51</ele>
        <time>2014-03-02T09:01:14Z</time>
      </trkpt>
      <trkpt lat="45.61165" lon="3.31799">
        <ele>649.51</ele>
        <time>2014-03-02T09:01:26Z</time>
      </trkpt>
      <trkpt lat="45.61182" lon="3.31811">
        <ele>649.99</ele>
        <time>2014-03-02T09:01:38Z</time>
      </trkpt>
      <trkpt lat="45.612" lon="3.31819">
        <ele>650.47</ele>
        <time>2014-03-02T09:01:49Z</time>
      </trkpt>
      <trkpt lat="45.61224" lon="3.31828">
        <ele>650.95</ele>
        <time>2014-03-02T09:01:59Z</time>
      </trkpt>
      <trkpt lat="45.61238" lon="3.31827">
        <ele>651.43</ele>
        <time>2014-03-02T09:02:06Z</time>
      </trkpt>
      <trkpt lat="45.61249" lon="3.31819">
        <ele>651.91</ele>
        <time>2014-03-02T09:02:25Z</time>
      </trkpt>
      <trkpt lat="45.61257" lon="3.3182">
        <ele>651.43</ele>
        <time>2014-03-02T09:02:35Z</time>
      </trkpt>
      <trkpt lat="45.61278" lon="3.31837">
        <ele>651.91</ele>
        <time>2014-03-02T09:02:50Z</time>
      </trkpt>
      <trkpt lat="45.61286" lon="3.31839">
        <ele>652.39</ele>
        <time>2014-03-02T09:02:54Z</time>
      </trkpt>
      <trkpt lat="45.61303" lon="3.3184">
        <ele>651.91</ele>
        <time>2014-03-02T09:03:02Z</time>
      </trkpt>
      <trkpt lat="45.61335" lon="3.31835">
        <ele>649.99</ele>
        <time>2014-03-02T09:03:16Z</time>
      </trkpt>
      <trkpt lat="45.61352" lon="3.3182">
        <ele>650.95</ele>
        <time>2014-03-02T09:03:24Z</time>
      </trkpt>
      <trkpt lat="45.6137" lon="3.31795">
        <ele>651.91</ele>
        <time>2014-03-02T09:03:36Z</time>
      </trkpt>
      <trkpt lat="45.61376" lon="3.31787">
        <ele>651.91</ele>
        <time>2014-03-02T09:03:39Z</time>
      </trkpt>
      <trkpt lat="45.61391" lon="3.3175">
        <ele>653.35</ele>
        <time>2014-03-02T09:03:52Z</time>
      </trkpt>
      <trkpt lat="45.61398" lon="3.31716">
        <ele>655.28</ele>
        <time>2014-03-02T09:04:05Z</time>
      </trkpt>
      <trkpt lat="45.614" lon="3.3171">
        <ele>655.76</ele>
        <time>2014-03-02T09:04:07Z</time>
      </trkpt>
      <trkpt lat="45.61404" lon="3.31697">
        <ele>656.24</ele>
        <time>2014-03-02T09:04:12Z</time>
      </trkpt>
      <trkpt lat="45.61411" lon="3.31679">
        <ele>656.72</ele>
        <time>2014-03-02T09:04:19Z</time>
      </trkpt>
      <trkpt lat="45.61423" lon="3.31653">
        <ele>656.72</ele>
        <time>2014-03-02T09:04:31Z</time>
      </trkpt>
      <trkpt lat="45.61432" lon="3.31635">
        <ele>656.72</ele>
        <time>2014-03-02T09:04:42Z</time>
      </trkpt>
      <trkpt lat="45.61432" lon="3.31634">
        <ele>656.72</ele>
        <time>2014-03-02T09:04:43Z</time>
      </trkpt>
      <trkpt lat="45.6145" lon="3.31614">
        <ele>655.76</ele>
        <time>2014-03-02T09:04:54Z</time>
      </trkpt>
      <trkpt lat="45.61476" lon="3.31602">
        <ele>653.83</ele>
        <time>2014-03-02T09:05:04Z</time>
      </trkpt>
      <trkpt lat="45.61486" lon="3.31602">
        <ele>652.87</ele>
        <time>2014-03-02T09:05:12Z</time>
      </trkpt>
      <trkpt lat="45.61499" lon="3.31594">
        <ele>652.39</ele>
        <time>2014-03-02T09:05:16Z</time>
      </trkpt>
      <trkpt lat="45.61506" lon="3.31588">
        <ele>652.39</ele>
        <time>2014-03-02T09:05:19Z</time>
      </trkpt>
      <trkpt lat="45.61524" lon="3.3157">
        <ele>650.95</ele>
        <time>2014-03-02T09:05:30Z</time>
      </trkpt>
      <trkpt lat="45.61529" lon="3.31563">
        <ele>650.47</ele>
        <time>2014-03-02T09:05:33Z</time>
      </trkpt>
      <trkpt lat="45.61539" lon="3.31551">
        <ele>649.99</ele>
        <time>2014-03-02T09:05:38Z</time>
      </trkpt>
      <trkpt lat="45.61545" lon="3.31549">
        <ele>649.51</ele>
        <time>2014-03-02T09:05:41Z</time>
      </trkpt>
      <trkpt lat="45.6157" lon="3.31564">
        <ele>646.62</ele>
        <time>2014-03-02T09:05:55Z</time>
      </trkpt>
      <trkpt lat="45.6159" lon="3.3158">
        <ele>643.26</ele>
        <time>2014-03-02T09:06:06Z</time>
      </trkpt>
      <trkpt lat="45.61607" lon="3.31598">
        <ele>639.89</ele>
        <time>2014-03-02T09:06:15Z</time>
      </trkpt>
      <trkpt lat="45.61612" lon="3.31603">
        <ele>638.45</ele>
        <time>2014-03-02T09:06:18Z</time>
      </trkpt>
      <trkpt lat="45.61615" lon="3.31607">
        <ele>637.49</ele>
        <time>2014-03-02T09:06:20Z</time>
      </trkpt>
      <trkpt lat="45.61622" lon="3.31614">
        <ele>635.09</ele>
        <time>2014-03-02T09:06:26Z</time>
      </trkpt>
      <trkpt lat="45.6163" lon="3.3162">
        <ele>633.17</ele>
        <time>2014-03-02T09:06:31Z</time>
      </trkpt>
      <trkpt lat="45.61655" lon="3.31637">
        <ele>630.28</ele>
        <time>2014-03-02T09:06:42Z</time>
      </trkpt>
      <trkpt lat="45.61685" lon="3.31647">
        <ele>627.88</ele>
        <time>2014-03-02T09:06:55Z</time>
      </trkpt>
      <trkpt lat="45.61687" lon="3.31647">
        <ele>627.4</ele>
        <time>2014-03-02T09:06:56Z</time>
      </trkpt>
      <trkpt lat="45.61706" lon="3.31646">
        <ele>625.47</ele>
        <time>2014-03-02T09:07:03Z</time>
      </trkpt>
      <trkpt lat="45.61722" lon="3.31646">
        <ele>624.51</ele>
        <time>2014-03-02T09:07:15Z</time>
      </trkpt>
      <trkpt lat="45.61721" lon="3.31643">
        <ele>624.51</ele>
        <time>2014-03-02T09:07:17Z</time>
      </trkpt>
      <trkpt lat="45.61716" lon="3.31623">
        <ele>625.47</ele>
        <time>2014-03-02T09:07:25Z</time>
      </trkpt>
      <trkpt lat="45.61715" lon="3.31618">
        <ele>625.96</ele>
        <time>2014-03-02T09:07:27Z</time>
      </trkpt>
      <trkpt lat="45.61704" lon="3.3159">
        <ele>626.92</ele>
        <time>2014-03-02T09:07:39Z</time>
      </trkpt>
      <trkpt lat="45.61702" lon="3.31569">
        <ele>627.88</ele>
        <time>2014-03-02T09:07:47Z</time>
      </trkpt>
      <trkpt lat="45.61703" lon="3.31558">
        <ele>628.36</ele>
        <time>2014-03-02T09:07:51Z</time>
      </trkpt>
      <trkpt lat="45.61704" lon="3.31551">
        <ele>627.88</ele>
        <time>2014-03-02T09:07:54Z</time>
      </trkpt>
      <trkpt lat="45.61706" lon="3.31526">
        <ele>628.84</ele>
        <time>2014-03-02T09:08:02Z</time>
      </trkpt>
      <trkpt lat="45.61717" lon="3.31491">
        <ele>630.28</ele>
        <time>2014-03-02T09:08:13Z</time>
      </trkpt>
      <trkpt lat="45.61719" lon="3.31478">
        <ele>630.76</ele>
        <time>2014-03-02T09:08:18Z</time>
      </trkpt>
      <trkpt lat="45.61721" lon="3.31474">
        <ele>630.76</ele>
        <time>2014-03-02T09:08:19Z</time>
      </trkpt>
      <trkpt lat="45.61721" lon="3.31463">
        <ele>631.72</ele>
        <time>2014-03-02T09:08:23Z</time>
      </trkpt>
      <trkpt lat="45.61722" lon="3.31444">
        <ele>632.2</ele>
        <time>2014-03-02T09:08:29Z</time>
      </trkpt>
      <trkpt lat="45.61717" lon="3.31425">
        <ele>633.17</ele>
        <time>2014-03-02T09:08:34Z</time>
      </trkpt>
      <trkpt lat="45.61717" lon="3.31408">
        <ele>634.61</ele>
        <time>2014-03-02T09:08:40Z</time>
      </trkpt>
      <trkpt lat="45.61717" lon="3.31398">
        <ele>635.09</ele>
        <time>2014-03-02T09:08:45Z</time>
      </trkpt>
      <trkpt lat="45.61718" lon="3.31384">
        <ele>636.53</ele>
        <time>2014-03-02T09:08:52Z</time>
      </trkpt>
      <trkpt lat="45.6172" lon="3.31358">
        <ele>637.01</ele>
        <time>2014-03-02T09:08:59Z</time>
      </trkpt>
      <trkpt lat="45.61719" lon="3.31351">
        <ele>637.49</ele>
        <time>2014-03-02T09:09:01Z</time>
      </trkpt>
      <trkpt lat="45.61711" lon="3.31322">
        <ele>638.93</ele>
        <time>2014-03-02T09:09:11Z</time>
      </trkpt>
      <trkpt lat="45.61703" lon="3.31301">
        <ele>640.38</ele>
        <time>2014-03-02T09:09:20Z</time>
      </trkpt>
      <trkpt lat="45.61702" lon="3.31297">
        <ele>640.38</ele>
        <time>2014-03-02T09:09:21Z</time>
      </trkpt>
      <trkpt lat="45.61694" lon="3.31267">
        <ele>642.3</ele>
        <time>2014-03-02T09:09:30Z</time>
      </trkpt>
      <trkpt lat="45.61692" lon="3.31251">
        <ele>643.26</ele>
        <time>2014-03-02T09:09:35Z</time>
      </trkpt>
      <trkpt lat="45.61689" lon="3.31244">
        <ele>643.74</ele>
        <time>2014-03-02T09:09:37Z</time>
      </trkpt>
      <trkpt lat="45.61688" lon="3.31239">
        <ele>644.22</ele>
        <time>2014-03-02T09:09:39Z</time>
      </trkpt>
      <trkpt lat="45.61686" lon="3.31232">
        <ele>645.18</ele>
        <time>2014-03-02T09:09:43Z</time>
      </trkpt>
      <trkpt lat="45.61677" lon="3.31209">
        <ele>646.14</ele>
        <time>2014-03-02T09:09:51Z</time>
      </trkpt>
      <trkpt lat="45.6167" lon="3.31177">
        <ele>648.07</ele>
        <time>2014-03-02T09:10:03Z</time>
      </trkpt>
      <trkpt lat="45.61668" lon="3.3116">
        <ele>648.07</ele>
        <time>2014-03-02T09:10:09Z</time>
      </trkpt>
      <trkpt lat="45.61666" lon="3.31148">
        <ele>648.55</ele>
        <time>2014-03-02T09:10:13Z</time>
      </trkpt>
      <trkpt lat="45.61666" lon="3.31123">
        <ele>649.03</ele>
        <time>2014-03-02T09:10:22Z</time>
      </trkpt>
      <trkpt lat="45.61672" lon="3.3111">
        <ele>649.99</ele>
        <time>2014-03-02T09:10:28Z</time>
      </trkpt>
      <trkpt lat="45.61677" lon="3.31099">
        <ele>650.47</ele>
        <time>2014-03-02T09:10:32Z</time>
      </trkpt>
      <trkpt lat="45.61694" lon="3.31059">
        <ele>651.91</ele>
        <time>2014-03-02T09:10:47Z</time>
      </trkpt>
      <trkpt lat="45.61697" lon="3.31052">
        <ele>652.39</ele>
        <time>2014-03-02T09:10:50Z</time>
      </trkpt>
      <trkpt lat="45.61697" lon="3.31046">
        <ele>652.39</ele>
        <time>2014-03-02T09:10:52Z</time>
      </trkpt>
      <trkpt lat="45.61699" lon="3.31039">
        <ele>652.87</ele>
        <time>2014-03-02T09:10:54Z</time>
      </trkpt>
      <trkpt lat="45.61702" lon="3.31035">
        <ele>652.87</ele>
        <time>2014-03-02T09:10:56Z</time>
      </trkpt>
      <trkpt lat="45.61714" lon="3.30991">
        <ele>653.83</ele>
        <time>2014-03-02T09:11:10Z</time>
      </trkpt>
      <trkpt lat="45.61717" lon="3.30976">
        <ele>654.8</ele>
        <time>2014-03-02T09:11:15Z</time>
      </trkpt>
      <trkpt lat="45.61727" lon="3.30947">
        <ele>655.28</ele>
        <time>2014-03-02T09:11:25Z</time>
      </trkpt>
      <trkpt lat="45.61728" lon="3.30939">
        <ele>655.76</ele>
        <time>2014-03-02T09:11:27Z</time>
      </trkpt>
      <trkpt lat="45.61734" lon="3.30922">
        <ele>656.24</ele>
        <time>2014-03-02T09:11:33Z</time>
      </trkpt>
      <trkpt lat="45.61735" lon="3.30917">
        <ele>656.72</ele>
        <time>2014-03-02T09:11:35Z</time>
      </trkpt>
      <trkpt lat="45.61742" lon="3.30895">
        <ele>657.68</ele>
        <time>2014-03-02T09:11:43Z</time>
      </trkpt>
      <trkpt lat="45.61744" lon="3.30887">
        <ele>658.16</ele>
        <time>2014-03-02T09:11:46Z</time>
      </trkpt>
      <trkpt lat="45.61742" lon="3.30872">
        <ele>659.12</ele>
        <time>2014-03-02T09:11:51Z</time>
      </trkpt>
      <trkpt lat="45.61743" lon="3.30846">
        <ele>661.52</ele>
        <time>2014-03-02T09:12:03Z</time>
      </trkpt>
      <trkpt lat="45.61746" lon="3.30834">
        <ele>662.49</ele>
        <time>2014-03-02T09:12:08Z</time>
      </trkpt>
      <trkpt lat="45.61754" lon="3.30813">
        <ele>663.93</ele>
        <time>2014-03-02T09:12:18Z</time>
      </trkpt>
      <trkpt lat="45.6176" lon="3.30777">
        <ele>665.85</ele>
        <time>2014-03-02T09:12:30Z</time>
      </trkpt>
      <trkpt lat="45.61778" lon="3.30746">
        <ele>667.29</ele>
        <time>2014-03-02T09:12:42Z</time>
      </trkpt>
      <trkpt lat="45.61791" lon="3.30716">
        <ele>669.7</ele>
        <time>2014-03-02T09:12:54Z</time>
      </trkpt>
      <trkpt lat="45.61801" lon="3.30691">
        <ele>671.62</ele>
        <time>2014-03-02T09:13:05Z</time>
      </trkpt>
      <trkpt lat="45.61811" lon="3.30674">
        <ele>671.62</ele>
        <time>2014-03-02T09:13:13Z</time>
      </trkpt>
      <trkpt lat="45.61814" lon="3.30657">
        <ele>672.58</ele>
        <time>2014-03-02T09:13:18Z</time>
      </trkpt>
      <trkpt lat="45.61817" lon="3.30645">
        <ele>673.06</ele>
        <time>2014-03-02T09:13:24Z</time>
      </trkpt>
      <trkpt lat="45.61821" lon="3.30636">
        <ele>673.54</ele>
        <time>2014-03-02T09:13:28Z</time>
      </trkpt>
      <trkpt lat="45.61827" lon="3.30611">
        <ele>674.02</ele>
        <time>2014-03-02T09:13:36Z</time>
      </trkpt>
      <trkpt lat="45.6183" lon="3.306">
        <ele>674.98</ele>
        <time>2014-03-02T09:13:40Z</time>
      </trkpt>
      <trkpt lat="45.6184" lon="3.30569">
        <ele>675.94</ele>
        <time>2014-03-02T09:13:53Z</time>
      </trkpt>
      <trkpt lat="45.61842" lon="3.3056">
        <ele>675.94</ele>
        <time>2014-03-02T09:13:56Z</time>
      </trkpt>
      <trkpt lat="45.61844" lon="3.30534">
        <ele>676.42</ele>
        <time>2014-03-02T09:14:08Z</time>
      </trkpt>
      <trkpt lat="45.61851" lon="3.30501">
        <ele>676.91</ele>
        <time>2014-03-02T09:14:19Z</time>
      </trkpt>
      <trkpt lat="45.61854" lon="3.3049">
        <ele>677.39</ele>
        <time>2014-03-02T09:14:22Z</time>
      </trkpt>
      <trkpt lat="45.61861" lon="3.30458">
        <ele>678.83</ele>
        <time>2014-03-02T09:14:32Z</time>
      </trkpt>
      <trkpt lat="45.61872" lon="3.30422">
        <ele>680.75</ele>
        <time>2014-03-02T09:14:45Z</time>
      </trkpt>
      <trkpt lat="45.61872" lon="3.30415">
        <ele>681.23</ele>
        <time>2014-03-02T09:14:47Z</time>
      </trkpt>
      <trkpt lat="45.61874" lon="3.30403">
        <ele>681.71</ele>
        <time>2014-03-02T09:14:51Z</time>
      </trkpt>
      <trkpt lat="45.61878" lon="3.30379">
        <ele>683.15</ele>
        <time>2014-03-02T09:15:01Z</time>
      </trkpt>
      <trkpt lat="45.61882" lon="3.3037">
        <ele>683.63</ele>
        <time>2014-03-02T09:15:05Z</time>
      </trkpt>
      <trkpt lat="45.61889" lon="3.3036">
        <ele>685.08</ele>
        <time>2014-03-02T09:15:10Z</time>
      </trkpt>
      <trkpt lat="45.61895" lon="3.30329">
        <ele>687</ele>
        <time>2014-03-02T09:15:21Z</time>
      </trkpt>
      <trkpt lat="45.61893" lon="3.30319">
        <ele>687.96</ele>
        <time>2014-03-02T09:15:24Z</time>
      </trkpt>
      <trkpt lat="45.61887" lon="3.30309">
        <ele>688.44</ele>
        <time>2014-03-02T09:15:29Z</time>
      </trkpt>
      <trkpt lat="45.61881" lon="3.30306">
        <ele>689.4</ele>
        <time>2014-03-02T09:15:35Z</time>
      </trkpt>
      <trkpt lat="45.61868" lon="3.30291">
        <ele>690.84</ele>
        <time>2014-03-02T09:15:44Z</time>
      </trkpt>
      <trkpt lat="45.61867" lon="3.30282">
        <ele>692.29</ele>
        <time>2014-03-02T09:15:49Z</time>
      </trkpt>
      <trkpt lat="45.61869" lon="3.30268">
        <ele>694.21</ele>
        <time>2014-03-02T09:15:55Z</time>
      </trkpt>
      <trkpt lat="45.6187" lon="3.30259">
        <ele>694.69</ele>
        <time>2014-03-02T09:15:59Z</time>
      </trkpt>
      <trkpt lat="45.61877" lon="3.30243">
        <ele>695.65</ele>
        <time>2014-03-02T09:16:07Z</time>
      </trkpt>
      <trkpt lat="45.61878" lon="3.3023">
        <ele>696.13</ele>
        <time>2014-03-02T09:16:11Z</time>
      </trkpt>
      <trkpt lat="45.61876" lon="3.30197">
        <ele>698.05</ele>
        <time>2014-03-02T09:16:23Z</time>
      </trkpt>
      <trkpt lat="45.61877" lon="3.30195">
        <ele>698.53</ele>
        <time>2014-03-02T09:16:24Z</time>
      </trkpt>
      <trkpt lat="45.61878" lon="3.30187">
        <ele>699.02</ele>
        <time>2014-03-02T09:16:27Z</time>
      </trkpt>
      <trkpt lat="45.61881" lon="3.30165">
        <ele>699.5</ele>
        <time>2014-03-02T09:16:36Z</time>
      </trkpt>
      <trkpt lat="45.61885" lon="3.3014">
        <ele>701.42</ele>
        <time>2014-03-02T09:16:46Z</time>
      </trkpt>
      <trkpt lat="45.61888" lon="3.30133">
        <ele>701.9</ele>
        <time>2014-03-02T09:16:49Z</time>
      </trkpt>
      <trkpt lat="45.61887" lon="3.30122">
        <ele>701.9</ele>
        <time>2014-03-02T09:16:52Z</time>
      </trkpt>
      <trkpt lat="45.61884" lon="3.30093">
        <ele>704.3</ele>
        <time>2014-03-02T09:17:03Z</time>
      </trkpt>
      <trkpt lat="45.61884" lon="3.30087">
        <ele>704.78</ele>
        <time>2014-03-02T09:17:05Z</time>
      </trkpt>
      <trkpt lat="45.61884" lon="3.30081">
        <ele>705.26</ele>
        <time>2014-03-02T09:17:07Z</time>
      </trkpt>
      <trkpt lat="45.61884" lon="3.30068">
        <ele>707.19</ele>
        <time>2014-03-02T09:17:14Z</time>
      </trkpt>
      <trkpt lat="45.61882" lon="3.30051">
        <ele>708.15</ele>
        <time>2014-03-02T09:17:20Z</time>
      </trkpt>
      <trkpt lat="45.61885" lon="3.30031">
        <ele>710.55</ele>
        <time>2014-03-02T09:17:27Z</time>
      </trkpt>
      <trkpt lat="45.61886" lon="3.30002">
        <ele>713.92</ele>
        <time>2014-03-02T09:17:40Z</time>
      </trkpt>
      <trkpt lat="45.61885" lon="3.29996">
        <ele>714.4</ele>
        <time>2014-03-02T09:17:43Z</time>
      </trkpt>
      <trkpt lat="45.61881" lon="3.29983">
        <ele>715.84</ele>
        <time>2014-03-02T09:17:49Z</time>
      </trkpt>
      <trkpt lat="45.61879" lon="3.29966">
        <ele>716.8</ele>
        <time>2014-03-02T09:17:55Z</time>
      </trkpt>
      <trkpt lat="45.61878" lon="3.29963">
        <ele>716.8</ele>
        <time>2014-03-02T09:17:57Z</time>
      </trkpt>
      <trkpt lat="45.61878" lon="3.29952">
        <ele>716.8</ele>
        <time>2014-03-02T09:18:02Z</time>
      </trkpt>
      <trkpt lat="45.61877" lon="3.29939">
        <ele>717.28</ele>
        <time>2014-03-02T09:18:07Z</time>
      </trkpt>
      <trkpt lat="45.61871" lon="3.29927">
        <ele>718.24</ele>
        <time>2014-03-02T09:18:13Z</time>
      </trkpt>
      <trkpt lat="45.61865" lon="3.29907">
        <ele>719.2</ele>
        <time>2014-03-02T09:18:23Z</time>
      </trkpt>
      <trkpt lat="45.61853" lon="3.29889">
        <ele>720.65</ele>
        <time>2014-03-02T09:18:32Z</time>
      </trkpt>
      <trkpt lat="45.61849" lon="3.29881">
        <ele>721.61</ele>
        <time>2014-03-02T09:18:36Z</time>
      </trkpt>
      <trkpt lat="45.61845" lon="3.29872">
        <ele>722.57</ele>
        <time>2014-03-02T09:18:40Z</time>
      </trkpt>
      <trkpt lat="45.61837" lon="3.29853">
        <ele>725.45</ele>
        <time>2014-03-02T09:18:50Z</time>
      </trkpt>
      <trkpt lat="45.61835" lon="3.29844">
        <ele>726.41</ele>
        <time>2014-03-02T09:18:54Z</time>
      </trkpt>
      <trkpt lat="45.61834" lon="3.29837">
        <ele>727.37</ele>
        <time>2014-03-02T09:18:58Z</time>
      </trkpt>
      <trkpt lat="45.61831" lon="3.29825">
        <ele>728.82</ele>
        <time>2014-03-02T09:19:04Z</time>
      </trkpt>
      <trkpt lat="45.61832" lon="3.2982">
        <ele>729.78</ele>
        <time>2014-03-02T09:19:07Z</time>
      </trkpt>
      <trkpt lat="45.61841" lon="3.29802">
        <ele>733.14</ele>
        <time>2014-03-02T09:19:20Z</time>
      </trkpt>
      <trkpt lat="45.61847" lon="3.29796">
        <ele>734.1</ele>
        <time>2014-03-02T09:19:25Z</time>
      </trkpt>
      <trkpt lat="45.61866" lon="3.29791">
        <ele>735.07</ele>
        <time>2014-03-02T09:19:39Z</time>
      </trkpt>
      <trkpt lat="45.61887" lon="3.29783">
        <ele>735.07</ele>
        <time>2014-03-02T09:19:51Z</time>
      </trkpt>
      <trkpt lat="45.6189" lon="3.2978">
        <ele>735.07</ele>
        <time>2014-03-02T09:19:53Z</time>
      </trkpt>
      <trkpt lat="45.61895" lon="3.29771">
        <ele>735.55</ele>
        <time>2014-03-02T09:19:57Z</time>
      </trkpt>
      <trkpt lat="45.61899" lon="3.29758">
        <ele>736.51</ele>
        <time>2014-03-02T09:20:03Z</time>
      </trkpt>
      <trkpt lat="45.619" lon="3.29747">
        <ele>737.47</ele>
        <time>2014-03-02T09:20:08Z</time>
      </trkpt>
      <trkpt lat="45.61898" lon="3.2974">
        <ele>737.95</ele>
        <time>2014-03-02T09:20:11Z</time>
      </trkpt>
      <trkpt lat="45.61901" lon="3.29717">
        <ele>740.35</ele>
        <time>2014-03-02T09:20:22Z</time>
      </trkpt>
      <trkpt lat="45.61902" lon="3.29709">
        <ele>740.83</ele>
        <time>2014-03-02T09:20:25Z</time>
      </trkpt>
      <trkpt lat="45.61904" lon="3.29695">
        <ele>741.79</ele>
        <time>2014-03-02T09:20:31Z</time>
      </trkpt>
      <trkpt lat="45.61903" lon="3.29691">
        <ele>742.28</ele>
        <time>2014-03-02T09:20:33Z</time>
      </trkpt>
      <trkpt lat="45.61903" lon="3.29678">
        <ele>743.72</ele>
        <time>2014-03-02T09:20:40Z</time>
      </trkpt>
      <trkpt lat="45.61907" lon="3.2966">
        <ele>744.2</ele>
        <time>2014-03-02T09:20:47Z</time>
      </trkpt>
      <trkpt lat="45.61917" lon="3.29639">
        <ele>746.12</ele>
        <time>2014-03-02T09:20:57Z</time>
      </trkpt>
      <trkpt lat="45.61926" lon="3.29611">
        <ele>748.52</ele>
        <time>2014-03-02T09:21:11Z</time>
      </trkpt>
      <trkpt lat="45.61924" lon="3.29607">
        <ele>748.52</ele>
        <time>2014-03-02T09:21:13Z</time>
      </trkpt>
      <trkpt lat="45.61919" lon="3.29593">
        <ele>749.49</ele>
        <time>2014-03-02T09:21:17Z</time>
      </trkpt>
      <trkpt lat="45.61918" lon="3.29577">
        <ele>750.93</ele>
        <time>2014-03-02T09:21:26Z</time>
      </trkpt>
      <trkpt lat="45.6192" lon="3.29567">
        <ele>751.41</ele>
        <time>2014-03-02T09:21:29Z</time>
      </trkpt>
      <trkpt lat="45.6192" lon="3.2954">
        <ele>754.77</ele>
        <time>2014-03-02T09:21:42Z</time>
      </trkpt>
      <trkpt lat="45.61919" lon="3.29522">
        <ele>755.73</ele>
        <time>2014-03-02T09:21:50Z</time>
      </trkpt>
      <trkpt lat="45.61922" lon="3.29495">
        <ele>759.58</ele>
        <time>2014-03-02T09:22:04Z</time>
      </trkpt>
      <trkpt lat="45.61923" lon="3.29486">
        <ele>760.54</ele>
        <time>2014-03-02T09:22:08Z</time>
      </trkpt>
      <trkpt lat="45.61927" lon="3.29466">
        <ele>762.94</ele>
        <time>2014-03-02T09:22:17Z</time>
      </trkpt>
      <trkpt lat="45.61933" lon="3.29454">
        <ele>763.9</ele>
        <time>2014-03-02T09:22:23Z</time>
      </trkpt>
      <trkpt lat="45.61935" lon="3.29448">
        <ele>764.39</ele>
        <time>2014-03-02T09:22:26Z</time>
      </trkpt>
      <trkpt lat="45.61937" lon="3.2944">
        <ele>765.35</ele>
        <time>2014-03-02T09:22:30Z</time>
      </trkpt>
      <trkpt lat="45.6194" lon="3.29418">
        <ele>767.27</ele>
        <time>2014-03-02T09:22:41Z</time>
      </trkpt>
      <trkpt lat="45.61941" lon="3.29408">
        <ele>768.23</ele>
        <time>2014-03-02T09:22:45Z</time>
      </trkpt>
      <trkpt lat="45.61942" lon="3.29403">
        <ele>768.23</ele>
        <time>2014-03-02T09:22:47Z</time>
      </trkpt>
      <trkpt lat="45.61942" lon="3.29394">
        <ele>770.15</ele>
        <time>2014-03-02T09:22:53Z</time>
      </trkpt>
      <trkpt lat="45.61927" lon="3.29389">
        <ele>771.6</ele>
        <time>2014-03-02T09:23:04Z</time>
      </trkpt>
      <trkpt lat="45.61914" lon="3.29382">
        <ele>773.52</ele>
        <time>2014-03-02T09:23:13Z</time>
      </trkpt>
      <trkpt lat="45.6191" lon="3.29379">
        <ele>774</ele>
        <time>2014-03-02T09:23:15Z</time>
      </trkpt>
      <trkpt lat="45.61899" lon="3.29363">
        <ele>775.92</ele>
        <time>2014-03-02T09:23:26Z</time>
      </trkpt>
      <trkpt lat="45.61894" lon="3.29356">
        <ele>776.4</ele>
        <time>2014-03-02T09:23:30Z</time>
      </trkpt>
      <trkpt lat="45.6188" lon="3.29341">
        <ele>778.32</ele>
        <time>2014-03-02T09:23:43Z</time>
      </trkpt>
      <trkpt lat="45.61876" lon="3.2934">
        <ele>778.32</ele>
        <time>2014-03-02T09:23:45Z</time>
      </trkpt>
      <trkpt lat="45.61858" lon="3.29341">
        <ele>778.81</ele>
        <time>2014-03-02T09:23:59Z</time>
      </trkpt>
      <trkpt lat="45.61857" lon="3.29342">
        <ele>779.29</ele>
        <time>2014-03-02T09:24:00Z</time>
      </trkpt>
      <trkpt lat="45.61853" lon="3.29344">
        <ele>779.29</ele>
        <time>2014-03-02T09:24:02Z</time>
      </trkpt>
      <trkpt lat="45.61843" lon="3.2935">
        <ele>780.25</ele>
        <time>2014-03-02T09:24:07Z</time>
      </trkpt>
      <trkpt lat="45.61827" lon="3.29363">
        <ele>782.65</ele>
        <time>2014-03-02T09:24:18Z</time>
      </trkpt>
      <trkpt lat="45.6181" lon="3.29378">
        <ele>782.65</ele>
        <time>2014-03-02T09:24:30Z</time>
      </trkpt>
      <trkpt lat="45.618" lon="3.29381">
        <ele>783.13</ele>
        <time>2014-03-02T09:24:36Z</time>
      </trkpt>
      <trkpt lat="45.61783" lon="3.294">
        <ele>782.65</ele>
        <time>2014-03-02T09:24:49Z</time>
      </trkpt>
      <trkpt lat="45.61771" lon="3.29426">
        <ele>783.13</ele>
        <time>2014-03-02T09:25:03Z</time>
      </trkpt>
      <trkpt lat="45.61757" lon="3.29454">
        <ele>783.61</ele>
        <time>2014-03-02T09:25:15Z</time>
      </trkpt>
      <trkpt lat="45.61744" lon="3.29476">
        <ele>784.09</ele>
        <time>2014-03-02T09:25:27Z</time>
      </trkpt>
      <trkpt lat="45.6174" lon="3.29496">
        <ele>784.57</ele>
        <time>2014-03-02T09:25:35Z</time>
      </trkpt>
      <trkpt lat="45.61733" lon="3.29529">
        <ele>786.02</ele>
        <time>2014-03-02T09:25:50Z</time>
      </trkpt>
      <trkpt lat="45.61722" lon="3.29561">
        <ele>786.5</ele>
        <time>2014-03-02T09:26:04Z</time>
      </trkpt>
      <trkpt lat="45.61721" lon="3.29597">
        <ele>784.57</ele>
        <time>2014-03-02T09:26:16Z</time>
      </trkpt>
      <trkpt lat="45.61716" lon="3.29627">
        <ele>783.13</ele>
        <time>2014-03-02T09:26:30Z</time>
      </trkpt>
      <trkpt lat="45.61715" lon="3.29628">
        <ele>783.13</ele>
        <time>2014-03-02T09:26:32Z</time>
      </trkpt>
      <trkpt lat="45.61713" lon="3.29636">
        <ele>783.13</ele>
        <time>2014-03-02T09:26:34Z</time>
      </trkpt>
      <trkpt lat="45.61708" lon="3.29655">
        <ele>782.65</ele>
        <time>2014-03-02T09:26:39Z</time>
      </trkpt>
      <trkpt lat="45.61702" lon="3.29666">
        <ele>783.61</ele>
        <time>2014-03-02T09:26:43Z</time>
      </trkpt>
      <trkpt lat="45.61701" lon="3.29668">
        <ele>784.09</ele>
        <time>2014-03-02T09:26:44Z</time>
      </trkpt>
      <trkpt lat="45.61692" lon="3.29677">
        <ele>785.05</ele>
        <time>2014-03-02T09:26:49Z</time>
      </trkpt>
      <trkpt lat="45.61688" lon="3.29688">
        <ele>785.05</ele>
        <time>2014-03-02T09:26:53Z</time>
      </trkpt>
      <trkpt lat="45.61669" lon="3.29712">
        <ele>782.65</ele>
        <time>2014-03-02T09:27:05Z</time>
      </trkpt>
      <trkpt lat="45.61661" lon="3.29728">
        <ele>779.77</ele>
        <time>2014-03-02T09:27:14Z</time>
      </trkpt>
      <trkpt lat="45.6166" lon="3.29731">
        <ele>779.77</ele>
        <time>2014-03-02T09:27:15Z</time>
      </trkpt>
      <trkpt lat="45.61659" lon="3.29738">
        <ele>778.32</ele>
        <time>2014-03-02T09:27:18Z</time>
      </trkpt>
      <trkpt lat="45.6166" lon="3.29754">
        <ele>776.88</ele>
        <time>2014-03-02T09:27:22Z</time>
      </trkpt>
      <trkpt lat="45.61658" lon="3.29785">
        <ele>775.44</ele>
        <time>2014-03-02T09:27:34Z</time>
      </trkpt>
      <trkpt lat="45.61653" lon="3.29802">
        <ele>775.44</ele>
        <time>2014-03-02T09:27:39Z</time>
      </trkpt>
      <trkpt lat="45.6164" lon="3.2983">
        <ele>775.44</ele>
        <time>2014-03-02T09:27:47Z</time>
      </trkpt>
      <trkpt lat="45.61627" lon="3.29862">
        <ele>774</ele>
        <time>2014-03-02T09:28:00Z</time>
      </trkpt>
      <trkpt lat="45.6164" lon="3.29902">
        <ele>773.04</ele>
        <time>2014-03-02T09:28:14Z</time>
      </trkpt>
      <trkpt lat="45.61645" lon="3.2994">
        <ele>770.15</ele>
        <time>2014-03-02T09:28:28Z</time>
      </trkpt>
      <trkpt lat="45.61647" lon="3.29949">
        <ele>769.19</ele>
        <time>2014-03-02T09:28:31Z</time>
      </trkpt>
      <trkpt lat="45.61649" lon="3.2999">
        <ele>767.75</ele>
        <time>2014-03-02T09:28:45Z</time>
      </trkpt>
      <trkpt lat="45.61647" lon="3.29999">
        <ele>767.27</ele>
        <time>2014-03-02T09:28:49Z</time>
      </trkpt>
      <trkpt lat="45.61634" lon="3.30026">
        <ele>765.35</ele>
        <time>2014-03-02T09:29:03Z</time>
      </trkpt>
      <trkpt lat="45.61632" lon="3.30027">
        <ele>764.39</ele>
        <time>2014-03-02T09:29:05Z</time>
      </trkpt>
      <trkpt lat="45.61631" lon="3.30029">
        <ele>764.39</ele>
        <time>2014-03-02T09:29:06Z</time>
      </trkpt>
      <trkpt lat="45.61604" lon="3.30061">
        <ele>763.9</ele>
        <time>2014-03-02T09:29:19Z</time>
      </trkpt>
      <trkpt lat="45.6159" lon="3.30083">
        <ele>762.94</ele>
        <time>2014-03-02T09:29:27Z</time>
      </trkpt>
      <trkpt lat="45.61576" lon="3.30098">
        <ele>762.46</ele>
        <time>2014-03-02T09:29:37Z</time>
      </trkpt>
      <trkpt lat="45.61568" lon="3.301">
        <ele>761.98</ele>
        <time>2014-03-02T09:29:41Z</time>
      </trkpt>
      <trkpt lat="45.61564" lon="3.30101">
        <ele>761.98</ele>
        <time>2014-03-02T09:29:43Z</time>
      </trkpt>
      <trkpt lat="45.61545" lon="3.30105">
        <ele>761.02</ele>
        <time>2014-03-02T09:29:51Z</time>
      </trkpt>
      <trkpt lat="45.6152" lon="3.30111">
        <ele>759.58</ele>
        <time>2014-03-02T09:30:01Z</time>
      </trkpt>
      <trkpt lat="45.61504" lon="3.30113">
        <ele>758.62</ele>
        <time>2014-03-02T09:30:08Z</time>
      </trkpt>
      <trkpt lat="45.61495" lon="3.30118">
        <ele>757.66</ele>
        <time>2014-03-02T09:30:13Z</time>
      </trkpt>
      <trkpt lat="45.61464" lon="3.30125">
        <ele>756.21</ele>
        <time>2014-03-02T09:30:25Z</time>
      </trkpt>
      <trkpt lat="45.6146" lon="3.30123">
        <ele>755.73</ele>
        <time>2014-03-02T09:30:28Z</time>
      </trkpt>
      <trkpt lat="45.61428" lon="3.30115">
        <ele>753.33</ele>
        <time>2014-03-02T09:30:41Z</time>
      </trkpt>
      <trkpt lat="45.61414" lon="3.3011">
        <ele>750.45</ele>
        <time>2014-03-02T09:30:48Z</time>
      </trkpt>
      <trkpt lat="45.61404" lon="3.30102">
        <ele>747.56</ele>
        <time>2014-03-02T09:30:55Z</time>
      </trkpt>
      <trkpt lat="45.61396" lon="3.30067">
        <ele>745.16</ele>
        <time>2014-03-02T09:31:05Z</time>
      </trkpt>
      <trkpt lat="45.61394" lon="3.30065">
        <ele>745.16</ele>
        <time>2014-03-02T09:31:06Z</time>
      </trkpt>
      <trkpt lat="45.61389" lon="3.30052">
        <ele>742.76</ele>
        <time>2014-03-02T09:31:11Z</time>
      </trkpt>
      <trkpt lat="45.61385" lon="3.30053">
        <ele>740.35</ele>
        <time>2014-03-02T09:31:15Z</time>
      </trkpt>
      <trkpt lat="45.61381" lon="3.30065">
        <ele>736.99</ele>
        <time>2014-03-02T09:31:20Z</time>
      </trkpt>
      <trkpt lat="45.61381" lon="3.30074">
        <ele>733.14</ele>
        <time>2014-03-02T09:31:24Z</time>
      </trkpt>
      <trkpt lat="45.61379" lon="3.30086">
        <ele>729.78</ele>
        <time>2014-03-02T09:31:29Z</time>
      </trkpt>
      <trkpt lat="45.61374" lon="3.30094">
        <ele>726.89</ele>
        <time>2014-03-02T09:31:34Z</time>
      </trkpt>
      <trkpt lat="45.6137" lon="3.30101">
        <ele>725.45</ele>
        <time>2014-03-02T09:31:37Z</time>
      </trkpt>
      <trkpt lat="45.61359" lon="3.30112">
        <ele>722.57</ele>
        <time>2014-03-02T09:31:43Z</time>
      </trkpt>
      <trkpt lat="45.61339" lon="3.30121">
        <ele>719.2</ele>
        <time>2014-03-02T09:31:49Z</time>
      </trkpt>
      <trkpt lat="45.61314" lon="3.30137">
        <ele>716.8</ele>
        <time>2014-03-02T09:32:00Z</time>
      </trkpt>
      <trkpt lat="45.61316" lon="3.30147">
        <ele>714.88</ele>
        <time>2014-03-02T09:32:05Z</time>
      </trkpt>
      <trkpt lat="45.61316" lon="3.30159">
        <ele>713.44</ele>
        <time>2014-03-02T09:32:09Z</time>
      </trkpt>
      <trkpt lat="45.61316" lon="3.3018">
        <ele>711.03</ele>
        <time>2014-03-02T09:32:15Z</time>
      </trkpt>
      <trkpt lat="45.61316" lon="3.30194">
        <ele>710.55</ele>
        <time>2014-03-02T09:32:19Z</time>
      </trkpt>
      <trkpt lat="45.61319" lon="3.30213">
        <ele>708.15</ele>
        <time>2014-03-02T09:32:25Z</time>
      </trkpt>
      <trkpt lat="45.61322" lon="3.30223">
        <ele>704.78</ele>
        <time>2014-03-02T09:32:36Z</time>
      </trkpt>
      <trkpt lat="45.61324" lon="3.3025">
        <ele>701.9</ele>
        <time>2014-03-02T09:32:48Z</time>
      </trkpt>
      <trkpt lat="45.61315" lon="3.30272">
        <ele>699.02</ele>
        <time>2014-03-02T09:32:57Z</time>
      </trkpt>
      <trkpt lat="45.61311" lon="3.30286">
        <ele>697.09</ele>
        <time>2014-03-02T09:33:01Z</time>
      </trkpt>
      <trkpt lat="45.61301" lon="3.30308">
        <ele>693.73</ele>
        <time>2014-03-02T09:33:08Z</time>
      </trkpt>
      <trkpt lat="45.61289" lon="3.30315">
        <ele>692.29</ele>
        <time>2014-03-02T09:33:13Z</time>
      </trkpt>
      <trkpt lat="45.61254" lon="3.30301">
        <ele>689.88</ele>
        <time>2014-03-02T09:33:26Z</time>
      </trkpt>
      <trkpt lat="45.61231" lon="3.30261">
        <ele>686.52</ele>
        <time>2014-03-02T09:33:39Z</time>
      </trkpt>
      <trkpt lat="45.61215" lon="3.30234">
        <ele>683.63</ele>
        <time>2014-03-02T09:33:49Z</time>
      </trkpt>
      <trkpt lat="45.61201" lon="3.30197">
        <ele>681.71</ele>
        <time>2014-03-02T09:34:00Z</time>
      </trkpt>
      <trkpt lat="45.61199" lon="3.30183">
        <ele>681.71</ele>
        <time>2014-03-02T09:34:05Z</time>
      </trkpt>
      <trkpt lat="45.61196" lon="3.30164">
        <ele>681.23</ele>
        <time>2014-03-02T09:34:10Z</time>
      </trkpt>
      <trkpt lat="45.61195" lon="3.30157">
        <ele>680.75</ele>
        <time>2014-03-02T09:34:12Z</time>
      </trkpt>
      <trkpt lat="45.61182" lon="3.30126">
        <ele>677.87</ele>
        <time>2014-03-02T09:34:21Z</time>
      </trkpt>
      <trkpt lat="45.6118" lon="3.30122">
        <ele>677.87</ele>
        <time>2014-03-02T09:34:23Z</time>
      </trkpt>
      <trkpt lat="45.61173" lon="3.30103">
        <ele>676.91</ele>
        <time>2014-03-02T09:34:28Z</time>
      </trkpt>
      <trkpt lat="45.61173" lon="3.30095">
        <ele>676.42</ele>
        <time>2014-03-02T09:34:30Z</time>
      </trkpt>
      <trkpt lat="45.61156" lon="3.30059">
        <ele>675.46</ele>
        <time>2014-03-02T09:34:41Z</time>
      </trkpt>
      <trkpt lat="45.61147" lon="3.30031">
        <ele>674.5</ele>
        <time>2014-03-02T09:34:50Z</time>
      </trkpt>
      <trkpt lat="45.61136" lon="3.29995">
        <ele>672.58</ele>
        <time>2014-03-02T09:35:00Z</time>
      </trkpt>
      <trkpt lat="45.61125" lon="3.29963">
        <ele>670.18</ele>
        <time>2014-03-02T09:35:08Z</time>
      </trkpt>
      <trkpt lat="45.61114" lon="3.29946">
        <ele>669.7</ele>
        <time>2014-03-02T09:35:14Z</time>
      </trkpt>
      <trkpt lat="45.61105" lon="3.29931">
        <ele>668.73</ele>
        <time>2014-03-02T09:35:19Z</time>
      </trkpt>
      <trkpt lat="45.61089" lon="3.29909">
        <ele>665.37</ele>
        <time>2014-03-02T09:35:28Z</time>
      </trkpt>
      <trkpt lat="45.61083" lon="3.29901">
        <ele>663.93</ele>
        <time>2014-03-02T09:35:31Z</time>
      </trkpt>
      <trkpt lat="45.6106" lon="3.29871">
        <ele>660.56</ele>
        <time>2014-03-02T09:35:42Z</time>
      </trkpt>
      <trkpt lat="45.61045" lon="3.2985">
        <ele>658.16</ele>
        <time>2014-03-02T09:35:50Z</time>
      </trkpt>
      <trkpt lat="45.61027" lon="3.29829">
        <ele>654.8</ele>
        <time>2014-03-02T09:35:59Z</time>
      </trkpt>
      <trkpt lat="45.6101" lon="3.29799">
        <ele>652.39</ele>
        <time>2014-03-02T09:36:08Z</time>
      </trkpt>
      <trkpt lat="45.61003" lon="3.29782">
        <ele>651.43</ele>
        <time>2014-03-02T09:36:13Z</time>
      </trkpt>
      <trkpt lat="45.60997" lon="3.29757">
        <ele>649.99</ele>
        <time>2014-03-02T09:36:21Z</time>
      </trkpt>
      <trkpt lat="45.60993" lon="3.29733">
        <ele>649.03</ele>
        <time>2014-03-02T09:36:28Z</time>
      </trkpt>
      <trkpt lat="45.60988" lon="3.297">
        <ele>648.07</ele>
        <time>2014-03-02T09:36:37Z</time>
      </trkpt>
      <trkpt lat="45.60985" lon="3.29689">
        <ele>648.07</ele>
        <time>2014-03-02T09:36:40Z</time>
      </trkpt>
      <trkpt lat="45.60967" lon="3.29652">
        <ele>645.66</ele>
        <time>2014-03-02T09:36:52Z</time>
      </trkpt>
      <trkpt lat="45.60957" lon="3.29644">
        <ele>644.22</ele>
        <time>2014-03-02T09:36:56Z</time>
      </trkpt>
      <trkpt lat="45.60937" lon="3.29651">
        <ele>642.3</ele>
        <time>2014-03-02T09:37:04Z</time>
      </trkpt>
      <trkpt lat="45.60927" lon="3.29658">
        <ele>640.38</ele>
        <time>2014-03-02T09:37:08Z</time>
      </trkpt>
      <trkpt lat="45.60917" lon="3.29665">
        <ele>638.93</ele>
        <time>2014-03-02T09:37:12Z</time>
      </trkpt>
      <trkpt lat="45.60894" lon="3.29687">
        <ele>635.57</ele>
        <time>2014-03-02T09:37:23Z</time>
      </trkpt>
      <trkpt lat="45.60868" lon="3.29716">
        <ele>633.17</ele>
        <time>2014-03-02T09:37:33Z</time>
      </trkpt>
      <trkpt lat="45.60862" lon="3.2972">
        <ele>632.68</ele>
        <time>2014-03-02T09:37:35Z</time>
      </trkpt>
      <trkpt lat="45.60858" lon="3.2973">
        <ele>632.2</ele>
        <time>2014-03-02T09:37:38Z</time>
      </trkpt>
      <trkpt lat="45.6088" lon="3.29772">
        <ele>632.68</ele>
        <time>2014-03-02T09:37:52Z</time>
      </trkpt>
      <trkpt lat="45.60892" lon="3.29802">
        <ele>633.17</ele>
        <time>2014-03-02T09:38:01Z</time>
      </trkpt>
      <trkpt lat="45.60896" lon="3.29838">
        <ele>633.17</ele>
        <time>2014-03-02T09:38:11Z</time>
      </trkpt>
      <trkpt lat="45.60901" lon="3.29879">
        <ele>634.13</ele>
        <time>2014-03-02T09:38:23Z</time>
      </trkpt>
      <trkpt lat="45.60903" lon="3.29904">
        <ele>634.61</ele>
        <time>2014-03-02T09:38:30Z</time>
      </trkpt>
      <trkpt lat="45.60895" lon="3.29927">
        <ele>634.61</ele>
        <time>2014-03-02T09:38:37Z</time>
      </trkpt>
      <trkpt lat="45.60891" lon="3.29939">
        <ele>634.61</ele>
        <time>2014-03-02T09:38:41Z</time>
      </trkpt>
      <trkpt lat="45.60871" lon="3.29977">
        <ele>633.65</ele>
        <time>2014-03-02T09:38:53Z</time>
      </trkpt>
      <trkpt lat="45.60848" lon="3.30017">
        <ele>632.68</ele>
        <time>2014-03-02T09:39:06Z</time>
      </trkpt>
      <trkpt lat="45.60828" lon="3.30053">
        <ele>629.8</ele>
        <time>2014-03-02T09:39:18Z</time>
      </trkpt>
      <trkpt lat="45.60804" lon="3.30092">
        <ele>627.88</ele>
        <time>2014-03-02T09:39:30Z</time>
      </trkpt>
      <trkpt lat="45.60786" lon="3.30103">
        <ele>626.44</ele>
        <time>2014-03-02T09:39:37Z</time>
      </trkpt>
      <trkpt lat="45.60775" lon="3.30098">
        <ele>624.99</ele>
        <time>2014-03-02T09:39:41Z</time>
      </trkpt>
      <trkpt lat="45.60755" lon="3.3009">
        <ele>621.15</ele>
        <time>2014-03-02T09:39:49Z</time>
      </trkpt>
      <trkpt lat="45.60752" lon="3.30089">
        <ele>621.15</ele>
        <time>2014-03-02T09:39:50Z</time>
      </trkpt>
      <trkpt lat="45.60742" lon="3.30083">
        <ele>619.71</ele>
        <time>2014-03-02T09:39:54Z</time>
      </trkpt>
      <trkpt lat="45.60718" lon="3.30072">
        <ele>615.86</ele>
        <time>2014-03-02T09:40:04Z</time>
      </trkpt>
      <trkpt lat="45.60686" lon="3.30067">
        <ele>612.5</ele>
        <time>2014-03-02T09:40:16Z</time>
      </trkpt>
      <trkpt lat="45.60661" lon="3.30063">
        <ele>609.61</ele>
        <time>2014-03-02T09:40:25Z</time>
      </trkpt>
      <trkpt lat="45.60637" lon="3.3006">
        <ele>606.25</ele>
        <time>2014-03-02T09:40:34Z</time>
      </trkpt>
      <trkpt lat="45.60632" lon="3.3006">
        <ele>605.77</ele>
        <time>2014-03-02T09:40:36Z</time>
      </trkpt>
      <trkpt lat="45.60609" lon="3.30057">
        <ele>603.85</ele>
        <time>2014-03-02T09:40:43Z</time>
      </trkpt>
      <trkpt lat="45.60604" lon="3.30058">
        <ele>602.88</ele>
        <time>2014-03-02T09:40:45Z</time>
      </trkpt>
      <trkpt lat="45.60572" lon="3.30061">
        <ele>600</ele>
        <time>2014-03-02T09:40:57Z</time>
      </trkpt>
      <trkpt lat="45.60548" lon="3.30063">
        <ele>598.56</ele>
        <time>2014-03-02T09:41:06Z</time>
      </trkpt>
      <trkpt lat="45.60519" lon="3.30062">
        <ele>596.64</ele>
        <time>2014-03-02T09:41:16Z</time>
      </trkpt>
      <trkpt lat="45.60487" lon="3.30049">
        <ele>595.19</ele>
        <time>2014-03-02T09:41:27Z</time>
      </trkpt>
      <trkpt lat="45.60458" lon="3.30035">
        <ele>593.75</ele>
        <time>2014-03-02T09:41:38Z</time>
      </trkpt>
      <trkpt lat="45.60429" lon="3.30017">
        <ele>593.27</ele>
        <time>2014-03-02T09:41:49Z</time>
      </trkpt>
      <trkpt lat="45.6041" lon="3.29995">
        <ele>592.79</ele>
        <time>2014-03-02T09:41:59Z</time>
      </trkpt>
      <trkpt lat="45.60398" lon="3.29972">
        <ele>592.79</ele>
        <time>2014-03-02T09:42:06Z</time>
      </trkpt>
      <trkpt lat="45.60389" lon="3.29956">
        <ele>593.27</ele>
        <time>2014-03-02T09:42:12Z</time>
      </trkpt>
      <trkpt lat="45.60366" lon="3.29924">
        <ele>593.75</ele>
        <time>2014-03-02T09:42:24Z</time>
      </trkpt>
      <trkpt lat="45.60346" lon="3.29907">
        <ele>593.75</ele>
        <time>2014-03-02T09:42:34Z</time>
      </trkpt>
      <trkpt lat="45.60323" lon="3.2988">
        <ele>595.19</ele>
        <time>2014-03-02T09:42:47Z</time>
      </trkpt>
      <trkpt lat="45.60302" lon="3.29869">
        <ele>595.67</ele>
        <time>2014-03-02T09:42:58Z</time>
      </trkpt>
      <trkpt lat="45.60283" lon="3.29857">
        <ele>594.71</ele>
        <time>2014-03-02T09:43:07Z</time>
      </trkpt>
      <trkpt lat="45.60279" lon="3.29854">
        <ele>594.23</ele>
        <time>2014-03-02T09:43:10Z</time>
      </trkpt>
      <trkpt lat="45.60268" lon="3.2985">
        <ele>593.27</ele>
        <time>2014-03-02T09:43:15Z</time>
      </trkpt>
      <trkpt lat="45.60252" lon="3.29847">
        <ele>591.35</ele>
        <time>2014-03-02T09:43:21Z</time>
      </trkpt>
      <trkpt lat="45.60246" lon="3.29846">
        <ele>590.87</ele>
        <time>2014-03-02T09:43:24Z</time>
      </trkpt>
      <trkpt lat="45.60236" lon="3.2985">
        <ele>588.95</ele>
        <time>2014-03-02T09:43:28Z</time>
      </trkpt>
      <trkpt lat="45.60209" lon="3.29857">
        <ele>586.06</ele>
        <time>2014-03-02T09:43:37Z</time>
      </trkpt>
      <trkpt lat="45.60187" lon="3.29864">
        <ele>583.18</ele>
        <time>2014-03-02T09:43:45Z</time>
      </trkpt>
      <trkpt lat="45.6016" lon="3.2987">
        <ele>579.81</ele>
        <time>2014-03-02T09:43:54Z</time>
      </trkpt>
      <trkpt lat="45.60135" lon="3.29877">
        <ele>577.41</ele>
        <time>2014-03-02T09:44:03Z</time>
      </trkpt>
      <trkpt lat="45.60105" lon="3.29883">
        <ele>575.01</ele>
        <time>2014-03-02T09:44:14Z</time>
      </trkpt>
      <trkpt lat="45.60078" lon="3.29882">
        <ele>572.6</ele>
        <time>2014-03-02T09:44:25Z</time>
      </trkpt>
      <trkpt lat="45.60054" lon="3.29882">
        <ele>569.72</ele>
        <time>2014-03-02T09:44:34Z</time>
      </trkpt>
      <trkpt lat="45.60018" lon="3.29878">
        <ele>566.83</ele>
        <time>2014-03-02T09:44:46Z</time>
      </trkpt>
      <trkpt lat="45.59985" lon="3.29881">
        <ele>564.91</ele>
        <time>2014-03-02T09:44:58Z</time>
      </trkpt>
      <trkpt lat="45.59977" lon="3.29881">
        <ele>564.43</ele>
        <time>2014-03-02T09:45:01Z</time>
      </trkpt>
      <trkpt lat="45.59956" lon="3.29882">
        <ele>563.95</ele>
        <time>2014-03-02T09:45:08Z</time>
      </trkpt>
      <trkpt lat="45.59922" lon="3.29881">
        <ele>562.51</ele>
        <time>2014-03-02T09:45:19Z</time>
      </trkpt>
      <trkpt lat="45.59892" lon="3.29875">
        <ele>561.55</ele>
        <time>2014-03-02T09:45:29Z</time>
      </trkpt>
      <trkpt lat="45.59865" lon="3.29867">
        <ele>559.62</ele>
        <time>2014-03-02T09:45:39Z</time>
      </trkpt>
      <trkpt lat="45.59827" lon="3.29862">
        <ele>557.7</ele>
        <time>2014-03-02T09:45:54Z</time>
      </trkpt>
      <trkpt lat="45.59806" lon="3.29881">
        <ele>557.22</ele>
        <time>2014-03-02T09:46:05Z</time>
      </trkpt>
      <trkpt lat="45.59785" lon="3.29909">
        <ele>555.78</ele>
        <time>2014-03-02T09:46:16Z</time>
      </trkpt>
      <trkpt lat="45.59775" lon="3.29917">
        <ele>555.3</ele>
        <time>2014-03-02T09:46:21Z</time>
      </trkpt>
      <trkpt lat="45.59756" lon="3.2995">
        <ele>551.93</ele>
        <time>2014-03-02T09:46:34Z</time>
      </trkpt>
      <trkpt lat="45.59743" lon="3.29978">
        <ele>549.05</ele>
        <time>2014-03-02T09:46:45Z</time>
      </trkpt>
      <trkpt lat="45.59729" lon="3.30011">
        <ele>545.69</ele>
        <time>2014-03-02T09:46:56Z</time>
      </trkpt>
      <trkpt lat="45.59728" lon="3.30023">
        <ele>544.24</ele>
        <time>2014-03-02T09:47:01Z</time>
      </trkpt>
      <trkpt lat="45.59729" lon="3.30029">
        <ele>543.28</ele>
        <time>2014-03-02T09:47:04Z</time>
      </trkpt>
      <trkpt lat="45.59726" lon="3.30042">
        <ele>541.84</ele>
        <time>2014-03-02T09:47:09Z</time>
      </trkpt>
      <trkpt lat="45.59721" lon="3.30085">
        <ele>539.92</ele>
        <time>2014-03-02T09:47:18Z</time>
      </trkpt>
      <trkpt lat="45.59722" lon="3.30093">
        <ele>538.96</ele>
        <time>2014-03-02T09:47:21Z</time>
      </trkpt>
      <trkpt lat="45.59724" lon="3.30118">
        <ele>538.48</ele>
        <time>2014-03-02T09:47:26Z</time>
      </trkpt>
      <trkpt lat="45.5972" lon="3.30162">
        <ele>536.07</ele>
        <time>2014-03-02T09:47:37Z</time>
      </trkpt>
      <trkpt lat="45.5972" lon="3.30176">
        <ele>535.59</ele>
        <time>2014-03-02T09:47:41Z</time>
      </trkpt>
      <trkpt lat="45.5972" lon="3.30193">
        <ele>535.11</ele>
        <time>2014-03-02T09:47:46Z</time>
      </trkpt>
      <trkpt lat="45.59727" lon="3.30237">
        <ele>534.63</ele>
        <time>2014-03-02T09:47:58Z</time>
      </trkpt>
      <trkpt lat="45.5973" lon="3.30278">
        <ele>533.67</ele>
        <time>2014-03-02T09:48:09Z</time>
      </trkpt>
      <trkpt lat="45.59732" lon="3.30316">
        <ele>532.23</ele>
        <time>2014-03-02T09:48:20Z</time>
      </trkpt>
      <trkpt lat="45.59733" lon="3.3034">
        <ele>531.27</ele>
        <time>2014-03-02T09:48:27Z</time>
      </trkpt>
      <trkpt lat="45.59758" lon="3.30356">
        <ele>530.79</ele>
        <time>2014-03-02T09:48:39Z</time>
      </trkpt>
      <trkpt lat="45.59772" lon="3.30359">
        <ele>530.79</ele>
        <time>2014-03-02T09:48:44Z</time>
      </trkpt>
      <trkpt lat="45.59787" lon="3.30362">
        <ele>531.27</ele>
        <time>2014-03-02T09:48:55Z</time>
      </trkpt>
      <trkpt lat="45.59813" lon="3.30369">
        <ele>531.75</ele>
        <time>2014-03-02T09:49:04Z</time>
      </trkpt>
      <trkpt lat="45.59838" lon="3.30395">
        <ele>529.34</ele>
        <time>2014-03-02T09:49:15Z</time>
      </trkpt>
      <trkpt lat="45.59847" lon="3.30417">
        <ele>525.98</ele>
        <time>2014-03-02T09:49:23Z</time>
      </trkpt>
      <trkpt lat="45.59849" lon="3.3042">
        <ele>525.5</ele>
        <time>2014-03-02T09:49:24Z</time>
      </trkpt>
      <trkpt lat="45.59862" lon="3.30446">
        <ele>523.09</ele>
        <time>2014-03-02T09:49:34Z</time>
      </trkpt>
      <trkpt lat="45.59878" lon="3.30482">
        <ele>521.65</ele>
        <time>2014-03-02T09:49:44Z</time>
      </trkpt>
      <trkpt lat="45.59878" lon="3.30519">
        <ele>518.29</ele>
        <time>2014-03-02T09:49:55Z</time>
      </trkpt>
      <trkpt lat="45.59878" lon="3.30551">
        <ele>516.37</ele>
        <time>2014-03-02T09:50:04Z</time>
      </trkpt>
      <trkpt lat="45.59878" lon="3.30569">
        <ele>513.96</ele>
        <time>2014-03-02T09:50:10Z</time>
      </trkpt>
      <trkpt lat="45.59877" lon="3.30579">
        <ele>512.52</ele>
        <time>2014-03-02T09:50:14Z</time>
      </trkpt>
      <trkpt lat="45.59876" lon="3.30615">
        <ele>508.67</ele>
        <time>2014-03-02T09:50:24Z</time>
      </trkpt>
      <trkpt lat="45.59872" lon="3.30647">
        <ele>508.19</ele>
        <time>2014-03-02T09:50:35Z</time>
      </trkpt>
      <trkpt lat="45.59873" lon="3.3068">
        <ele>509.64</ele>
        <time>2014-03-02T09:50:46Z</time>
      </trkpt>
      <trkpt lat="45.59874" lon="3.30717">
        <ele>510.12</ele>
        <time>2014-03-02T09:50:56Z</time>
      </trkpt>
      <trkpt lat="45.59875" lon="3.30757">
        <ele>510.6</ele>
        <time>2014-03-02T09:51:07Z</time>
      </trkpt>
      <trkpt lat="45.59873" lon="3.30793">
        <ele>512.04</ele>
        <time>2014-03-02T09:51:19Z</time>
      </trkpt>
      <trkpt lat="45.59873" lon="3.30812">
        <ele>513</ele>
        <time>2014-03-02T09:51:25Z</time>
      </trkpt>
      <trkpt lat="45.59877" lon="3.30829">
        <ele>513.96</ele>
        <time>2014-03-02T09:51:32Z</time>
      </trkpt>
      <trkpt lat="45.59888" lon="3.30841">
        <ele>515.4</ele>
        <time>2014-03-02T09:51:38Z</time>
      </trkpt>
      <trkpt lat="45.59904" lon="3.30855">
        <ele>516.85</ele>
        <time>2014-03-02T09:51:47Z</time>
      </trkpt>
      <trkpt lat="45.59928" lon="3.3087">
        <ele>519.73</ele>
        <time>2014-03-02T09:52:00Z</time>
      </trkpt>
      <trkpt lat="45.59945" lon="3.30891">
        <ele>522.13</ele>
        <time>2014-03-02T09:52:12Z</time>
      </trkpt>
      <trkpt lat="45.59952" lon="3.3092">
        <ele>523.09</ele>
        <time>2014-03-02T09:52:24Z</time>
      </trkpt>
      <trkpt lat="45.59957" lon="3.30961">
        <ele>524.06</ele>
        <time>2014-03-02T09:52:37Z</time>
      </trkpt>
      <trkpt lat="45.5996" lon="3.30985">
        <ele>525.02</ele>
        <time>2014-03-02T09:52:44Z</time>
      </trkpt>
      <trkpt lat="45.59961" lon="3.31006">
        <ele>525.5</ele>
        <time>2014-03-02T09:52:51Z</time>
      </trkpt>
      <trkpt lat="45.59964" lon="3.31039">
        <ele>525.98</ele>
        <time>2014-03-02T09:53:02Z</time>
      </trkpt>
      <trkpt lat="45.59968" lon="3.31086">
        <ele>526.94</ele>
        <time>2014-03-02T09:53:17Z</time>
      </trkpt>
      <trkpt lat="45.5997" lon="3.31129">
        <ele>528.38</ele>
        <time>2014-03-02T09:53:31Z</time>
      </trkpt>
      <trkpt lat="45.59971" lon="3.31172">
        <ele>530.3</ele>
        <time>2014-03-02T09:53:44Z</time>
      </trkpt>
      <trkpt lat="45.59969" lon="3.31208">
        <ele>532.23</ele>
        <time>2014-03-02T09:53:55Z</time>
      </trkpt>
      <trkpt lat="45.59979" lon="3.31244">
        <ele>533.19</ele>
        <time>2014-03-02T09:54:09Z</time>
      </trkpt>
      <trkpt lat="45.59992" lon="3.31273">
        <ele>534.15</ele>
        <time>2014-03-02T09:54:20Z</time>
      </trkpt>
      <trkpt lat="45.59999" lon="3.3132">
        <ele>532.71</ele>
        <time>2014-03-02T09:54:34Z</time>
      </trkpt>
      <trkpt lat="45.60001" lon="3.31352">
        <ele>531.27</ele>
        <time>2014-03-02T09:54:44Z</time>
      </trkpt>
      <trkpt lat="45.6" lon="3.31356">
        <ele>531.27</ele>
        <time>2014-03-02T09:54:46Z</time>
      </trkpt>
      <trkpt lat="45.6" lon="3.31354">
        <ele>531.75</ele>
        <time>2014-03-02T09:54:48Z</time>
      </trkpt>
      <trkpt lat="45.60002" lon="3.31384">
        <ele>530.3</ele>
        <time>2014-03-02T09:54:57Z</time>
      </trkpt>
      <trkpt lat="45.60002" lon="3.31388">
        <ele>530.79</ele>
        <time>2014-03-02T09:54:58Z</time>
      </trkpt>
      <trkpt lat="45.60003" lon="3.31439">
        <ele>529.34</ele>
        <time>2014-03-02T09:55:12Z</time>
      </trkpt>
      <trkpt lat="45.60002" lon="3.31472">
        <ele>527.9</ele>
        <time>2014-03-02T09:55:22Z</time>
      </trkpt>
      <trkpt lat="45.60005" lon="3.3149">
        <ele>527.42</ele>
        <time>2014-03-02T09:55:27Z</time>
      </trkpt>
      <trkpt lat="45.60004" lon="3.31502">
        <ele>526.94</ele>
        <time>2014-03-02T09:55:32Z</time>
      </trkpt>
      <trkpt lat="45.60006" lon="3.31521">
        <ele>526.46</ele>
        <time>2014-03-02T09:55:39Z</time>
      </trkpt>
      <trkpt lat="45.60007" lon="3.31541">
        <ele>525.98</ele>
        <time>2014-03-02T09:55:46Z</time>
      </trkpt>
      <trkpt lat="45.60006" lon="3.31582">
        <ele>526.46</ele>
        <time>2014-03-02T09:55:58Z</time>
      </trkpt>
      <trkpt lat="45.60006" lon="3.31585">
        <ele>525.98</ele>
        <time>2014-03-02T09:55:59Z</time>
      </trkpt>
      <trkpt lat="45.6001" lon="3.31633">
        <ele>527.42</ele>
        <time>2014-03-02T09:56:12Z</time>
      </trkpt>
      <trkpt lat="45.60011" lon="3.31647">
        <ele>527.42</ele>
        <time>2014-03-02T09:56:16Z</time>
      </trkpt>
      <trkpt lat="45.6001" lon="3.31661">
        <ele>527.42</ele>
        <time>2014-03-02T09:56:20Z</time>
      </trkpt>
      <trkpt lat="45.60011" lon="3.31685">
        <ele>528.38</ele>
        <time>2014-03-02T09:56:27Z</time>
      </trkpt>
      <trkpt lat="45.60012" lon="3.317">
        <ele>528.38</ele>
        <time>2014-03-02T09:56:32Z</time>
      </trkpt>
      <trkpt lat="45.60011" lon="3.31723">
        <ele>529.34</ele>
        <time>2014-03-02T09:56:38Z</time>
      </trkpt>
      <trkpt lat="45.60012" lon="3.31765">
        <ele>528.38</ele>
        <time>2014-03-02T09:56:49Z</time>
      </trkpt>
      <trkpt lat="45.60013" lon="3.31804">
        <ele>527.42</ele>
        <time>2014-03-02T09:57:00Z</time>
      </trkpt>
      <trkpt lat="45.60014" lon="3.3184">
        <ele>526.94</ele>
        <time>2014-03-02T09:57:10Z</time>
      </trkpt>
      <trkpt lat="45.60013" lon="3.31862">
        <ele>526.46</ele>
        <time>2014-03-02T09:57:16Z</time>
      </trkpt>
      <trkpt lat="45.6001" lon="3.3188">
        <ele>525.98</ele>
        <time>2014-03-02T09:57:21Z</time>
      </trkpt>
      <trkpt lat="45.60008" lon="3.31918">
        <ele>525.5</ele>
        <time>2014-03-02T09:57:32Z</time>
      </trkpt>
      <trkpt lat="45.60008" lon="3.31958">
        <ele>525.02</ele>
        <time>2014-03-02T09:57:45Z</time>
      </trkpt>
      <trkpt lat="45.60006" lon="3.31982">
        <ele>524.54</ele>
        <time>2014-03-02T09:57:52Z</time>
      </trkpt>
      <trkpt lat="45.60006" lon="3.32023">
        <ele>523.58</ele>
        <time>2014-03-02T09:58:02Z</time>
      </trkpt>
      <trkpt lat="45.6001" lon="3.32071">
        <ele>524.06</ele>
        <time>2014-03-02T09:58:14Z</time>
      </trkpt>
      <trkpt lat="45.60012" lon="3.32082">
        <ele>524.06</ele>
        <time>2014-03-02T09:58:17Z</time>
      </trkpt>
      <trkpt lat="45.60009" lon="3.32096">
        <ele>523.58</ele>
        <time>2014-03-02T09:58:22Z</time>
      </trkpt>
      <trkpt lat="45.59999" lon="3.32101">
        <ele>522.61</ele>
        <time>2014-03-02T09:58:28Z</time>
      </trkpt>
      <trkpt lat="45.59986" lon="3.32102">
        <ele>521.17</ele>
        <time>2014-03-02T09:58:33Z</time>
      </trkpt>
      <trkpt lat="45.5997" lon="3.32105">
        <ele>518.77</ele>
        <time>2014-03-02T09:58:40Z</time>
      </trkpt>
      <trkpt lat="45.59948" lon="3.32106">
        <ele>516.85</ele>
        <time>2014-03-02T09:58:48Z</time>
      </trkpt>
      <trkpt lat="45.59928" lon="3.32108">
        <ele>514.92</ele>
        <time>2014-03-02T09:58:56Z</time>
      </trkpt>
      <trkpt lat="45.59885" lon="3.32105">
        <ele>512.52</ele>
        <time>2014-03-02T09:59:07Z</time>
      </trkpt>
      <trkpt lat="45.59864" lon="3.3211">
        <ele>510.12</ele>
        <time>2014-03-02T09:59:15Z</time>
      </trkpt>
      <trkpt lat="45.59859" lon="3.3211">
        <ele>509.64</ele>
        <time>2014-03-02T09:59:17Z</time>
      </trkpt>
      <trkpt lat="45.59848" lon="3.32111">
        <ele>508.19</ele>
        <time>2014-03-02T09:59:22Z</time>
      </trkpt>
      <trkpt lat="45.5982" lon="3.32112">
        <ele>505.31</ele>
        <time>2014-03-02T09:59:32Z</time>
      </trkpt>
      <trkpt lat="45.59818" lon="3.32112">
        <ele>504.83</ele>
        <time>2014-03-02T09:59:33Z</time>
      </trkpt>
      <trkpt lat="45.59797" lon="3.32115">
        <ele>501.95</ele>
        <time>2014-03-02T09:59:42Z</time>
      </trkpt>
      <trkpt lat="45.59791" lon="3.32117">
        <ele>500.5</ele>
        <time>2014-03-02T09:59:45Z</time>
      </trkpt>
      <trkpt lat="45.5979" lon="3.32118">
        <ele>499.54</ele>
        <time>2014-03-02T09:59:46Z</time>
      </trkpt>
      <trkpt lat="45.5978" lon="3.32119">
        <ele>498.1</ele>
        <time>2014-03-02T09:59:50Z</time>
      </trkpt>
      <trkpt lat="45.59768" lon="3.32121">
        <ele>496.18</ele>
        <time>2014-03-02T09:59:54Z</time>
      </trkpt>
      <trkpt lat="45.59745" lon="3.32126">
        <ele>492.81</ele>
        <time>2014-03-02T10:00:03Z</time>
      </trkpt>
      <trkpt lat="45.5974" lon="3.32127">
        <ele>491.37</ele>
        <time>2014-03-02T10:00:05Z</time>
      </trkpt>
      <trkpt lat="45.59737" lon="3.3213">
        <ele>490.89</ele>
        <time>2014-03-02T10:00:07Z</time>
      </trkpt>
      <trkpt lat="45.59734" lon="3.32131">
        <ele>489.93</ele>
        <time>2014-03-02T10:00:09Z</time>
      </trkpt>
      <trkpt lat="45.59732" lon="3.32134">
        <ele>488.97</ele>
        <time>2014-03-02T10:00:11Z</time>
      </trkpt>
      <trkpt lat="45.59721" lon="3.32142">
        <ele>486.08</ele>
        <time>2014-03-02T10:00:17Z</time>
      </trkpt>
      <trkpt lat="45.59709" lon="3.3215">
        <ele>483.68</ele>
        <time>2014-03-02T10:00:24Z</time>
      </trkpt>
      <trkpt lat="45.59686" lon="3.3216">
        <ele>482.24</ele>
        <time>2014-03-02T10:00:33Z</time>
      </trkpt>
      <trkpt lat="45.59657" lon="3.32173">
        <ele>479.84</ele>
        <time>2014-03-02T10:00:44Z</time>
      </trkpt>
      <trkpt lat="45.59656" lon="3.32177">
        <ele>479.84</ele>
        <time>2014-03-02T10:00:45Z</time>
      </trkpt>
      <trkpt lat="45.59646" lon="3.32196">
        <ele>479.35</ele>
        <time>2014-03-02T10:00:51Z</time>
      </trkpt>
      <trkpt lat="45.5963" lon="3.32222">
        <ele>478.39</ele>
        <time>2014-03-02T10:01:00Z</time>
      </trkpt>
      <trkpt lat="45.59624" lon="3.3224">
        <ele>478.39</ele>
        <time>2014-03-02T10:01:05Z</time>
      </trkpt>
      <trkpt lat="45.59618" lon="3.32254">
        <ele>477.43</ele>
        <time>2014-03-02T10:01:10Z</time>
      </trkpt>
      <trkpt lat="45.59588" lon="3.32254">
        <ele>476.95</ele>
        <time>2014-03-02T10:01:21Z</time>
      </trkpt>
      <trkpt lat="45.59562" lon="3.32248">
        <ele>476.47</ele>
        <time>2014-03-02T10:01:32Z</time>
      </trkpt>
      <trkpt lat="45.59536" lon="3.32242">
        <ele>475.03</ele>
        <time>2014-03-02T10:01:42Z</time>
      </trkpt>
      <trkpt lat="45.5951" lon="3.32234">
        <ele>474.55</ele>
        <time>2014-03-02T10:01:52Z</time>
      </trkpt>
      <trkpt lat="45.59502" lon="3.32238">
        <ele>474.07</ele>
        <time>2014-03-02T10:01:56Z</time>
      </trkpt>
      <trkpt lat="45.59494" lon="3.32251">
        <ele>474.07</ele>
        <time>2014-03-02T10:02:01Z</time>
      </trkpt>
      <trkpt lat="45.59482" lon="3.32296">
        <ele>473.59</ele>
        <time>2014-03-02T10:02:13Z</time>
      </trkpt>
      <trkpt lat="45.5947" lon="3.32318">
        <ele>473.11</ele>
        <time>2014-03-02T10:02:21Z</time>
      </trkpt>
      <trkpt lat="45.59456" lon="3.32338">
        <ele>473.11</ele>
        <time>2014-03-02T10:02:29Z</time>
      </trkpt>
      <trkpt lat="45.59454" lon="3.32341">
        <ele>472.63</ele>
        <time>2014-03-02T10:02:30Z</time>
      </trkpt>
      <trkpt lat="45.59439" lon="3.32362">
        <ele>472.14</ele>
        <time>2014-03-02T10:02:38Z</time>
      </trkpt>
      <trkpt lat="45.59425" lon="3.32377">
        <ele>471.66</ele>
        <time>2014-03-02T10:02:45Z</time>
      </trkpt>
      <trkpt lat="45.59405" lon="3.32405">
        <ele>470.7</ele>
        <time>2014-03-02T10:02:56Z</time>
      </trkpt>
      <trkpt lat="45.59386" lon="3.32432">
        <ele>469.74</ele>
        <time>2014-03-02T10:03:07Z</time>
      </trkpt>
      <trkpt lat="45.59364" lon="3.32457">
        <ele>469.26</ele>
        <time>2014-03-02T10:03:17Z</time>
      </trkpt>
      <trkpt lat="45.59351" lon="3.32476">
        <ele>467.34</ele>
        <time>2014-03-02T10:03:25Z</time>
      </trkpt>
      <trkpt lat="45.59349" lon="3.32483">
        <ele>466.86</ele>
        <time>2014-03-02T10:03:27Z</time>
      </trkpt>
      <trkpt lat="45.59341" lon="3.32523">
        <ele>464.45</ele>
        <time>2014-03-02T10:03:38Z</time>
      </trkpt>
      <trkpt lat="45.59329" lon="3.32566">
        <ele>463.01</ele>
        <time>2014-03-02T10:03:49Z</time>
      </trkpt>
      <trkpt lat="45.59331" lon="3.32575">
        <ele>463.49</ele>
        <time>2014-03-02T10:03:53Z</time>
      </trkpt>
      <trkpt lat="45.59327" lon="3.32586">
        <ele>463.01</ele>
        <time>2014-03-02T10:03:59Z</time>
      </trkpt>
      <trkpt lat="45.59325" lon="3.32592">
        <ele>463.01</ele>
        <time>2014-03-02T10:04:02Z</time>
      </trkpt>
      <trkpt lat="45.59323" lon="3.32598">
        <ele>463.01</ele>
        <time>2014-03-02T10:04:05Z</time>
      </trkpt>
      <trkpt lat="45.59321" lon="3.32608">
        <ele>462.53</ele>
        <time>2014-03-02T10:04:09Z</time>
      </trkpt>
      <trkpt lat="45.59313" lon="3.3263">
        <ele>462.53</ele>
        <time>2014-03-02T10:04:18Z</time>
      </trkpt>
      <trkpt lat="45.59307" lon="3.32638">
        <ele>462.53</ele>
        <time>2014-03-02T10:04:22Z</time>
      </trkpt>
      <trkpt lat="45.59304" lon="3.32644">
        <ele>462.53</ele>
        <time>2014-03-02T10:04:24Z</time>
      </trkpt>
      <trkpt lat="45.59282" lon="3.32663">
        <ele>463.49</ele>
        <time>2014-03-02T10:04:33Z</time>
      </trkpt>
      <trkpt lat="45.59275" lon="3.3267">
        <ele>463.49</ele>
        <time>2014-03-02T10:04:37Z</time>
      </trkpt>
      <trkpt lat="45.59262" lon="3.3268">
        <ele>464.45</ele>
        <time>2014-03-02T10:04:43Z</time>
      </trkpt>
      <trkpt lat="45.59248" lon="3.32696">
        <ele>465.42</ele>
        <time>2014-03-02T10:04:51Z</time>
      </trkpt>
      <trkpt lat="45.59239" lon="3.32726">
        <ele>466.86</ele>
        <time>2014-03-02T10:05:02Z</time>
      </trkpt>
      <trkpt lat="45.59232" lon="3.32749">
        <ele>467.34</ele>
        <time>2014-03-02T10:05:11Z</time>
      </trkpt>
      <trkpt lat="45.59225" lon="3.32776">
        <ele>466.38</ele>
        <time>2014-03-02T10:05:20Z</time>
      </trkpt>
      <trkpt lat="45.59215" lon="3.32809">
        <ele>466.38</ele>
        <time>2014-03-02T10:05:30Z</time>
      </trkpt>
      <trkpt lat="45.59203" lon="3.32846">
        <ele>465.42</ele>
        <time>2014-03-02T10:05:42Z</time>
      </trkpt>
      <trkpt lat="45.59192" lon="3.32877">
        <ele>464.93</ele>
        <time>2014-03-02T10:05:53Z</time>
      </trkpt>
      <trkpt lat="45.59187" lon="3.3289">
        <ele>464.93</ele>
        <time>2014-03-02T10:05:57Z</time>
      </trkpt>
      <trkpt lat="45.59176" lon="3.32918">
        <ele>464.45</ele>
        <time>2014-03-02T10:06:06Z</time>
      </trkpt>
      <trkpt lat="45.59161" lon="3.32955">
        <ele>463.97</ele>
        <time>2014-03-02T10:06:18Z</time>
      </trkpt>
      <trkpt lat="45.59148" lon="3.32987">
        <ele>463.01</ele>
        <time>2014-03-02T10:06:28Z</time>
      </trkpt>
      <trkpt lat="45.59147" lon="3.3299">
        <ele>463.01</ele>
        <time>2014-03-02T10:06:29Z</time>
      </trkpt>
      <trkpt lat="45.59133" lon="3.33014">
        <ele>463.01</ele>
        <time>2014-03-02T10:06:37Z</time>
      </trkpt>
      <trkpt lat="45.59114" lon="3.33042">
        <ele>462.53</ele>
        <time>2014-03-02T10:06:47Z</time>
      </trkpt>
      <trkpt lat="45.59097" lon="3.33071">
        <ele>462.05</ele>
        <time>2014-03-02T10:06:57Z</time>
      </trkpt>
      <trkpt lat="45.5908" lon="3.33099">
        <ele>461.57</ele>
        <time>2014-03-02T10:07:07Z</time>
      </trkpt>
      <trkpt lat="45.59062" lon="3.33127">
        <ele>460.61</ele>
        <time>2014-03-02T10:07:17Z</time>
      </trkpt>
      <trkpt lat="45.59041" lon="3.3315">
        <ele>460.61</ele>
        <time>2014-03-02T10:07:27Z</time>
      </trkpt>
      <trkpt lat="45.59022" lon="3.3315">
        <ele>460.13</ele>
        <time>2014-03-02T10:07:34Z</time>
      </trkpt>
      <trkpt lat="45.58994" lon="3.33145">
        <ele>459.65</ele>
        <time>2014-03-02T10:07:45Z</time>
      </trkpt>
      <trkpt lat="45.58982" lon="3.33143">
        <ele>459.17</ele>
        <time>2014-03-02T10:07:50Z</time>
      </trkpt>
      <trkpt lat="45.58971" lon="3.33141">
        <ele>459.17</ele>
        <time>2014-03-02T10:07:54Z</time>
      </trkpt>
      <trkpt lat="45.5896" lon="3.33135">
        <ele>458.69</ele>
        <time>2014-03-02T10:07:59Z</time>
      </trkpt>
      <trkpt lat="45.58933" lon="3.33139">
        <ele>458.21</ele>
        <time>2014-03-02T10:08:09Z</time>
      </trkpt>
      <trkpt lat="45.58923" lon="3.33142">
        <ele>458.21</ele>
        <time>2014-03-02T10:08:14Z</time>
      </trkpt>
      <trkpt lat="45.58916" lon="3.33141">
        <ele>457.72</ele>
        <time>2014-03-02T10:08:17Z</time>
      </trkpt>
      <trkpt lat="45.58898" lon="3.33144">
        <ele>457.72</ele>
        <time>2014-03-02T10:08:24Z</time>
      </trkpt>
      <trkpt lat="45.58889" lon="3.3316">
        <ele>457.24</ele>
        <time>2014-03-02T10:08:32Z</time>
      </trkpt>
      <trkpt lat="45.58875" lon="3.33191">
        <ele>456.76</ele>
        <time>2014-03-02T10:08:44Z</time>
      </trkpt>
      <trkpt lat="45.5887" lon="3.33203">
        <ele>456.28</ele>
        <time>2014-03-02T10:08:49Z</time>
      </trkpt>
      <trkpt lat="45.58864" lon="3.33223">
        <ele>455.8</ele>
        <time>2014-03-02T10:08:56Z</time>
      </trkpt>
      <trkpt lat="45.58853" lon="3.33251">
        <ele>454.36</ele>
        <time>2014-03-02T10:09:07Z</time>
      </trkpt>
      <trkpt lat="45.58842" lon="3.3328">
        <ele>452.92</ele>
        <time>2014-03-02T10:09:17Z</time>
      </trkpt>
      <trkpt lat="45.58841" lon="3.33283">
        <ele>452.44</ele>
        <time>2014-03-02T10:09:18Z</time>
      </trkpt>
      <trkpt lat="45.58811" lon="3.33304">
        <ele>451.96</ele>
        <time>2014-03-02T10:09:31Z</time>
      </trkpt>
      <trkpt lat="45.58784" lon="3.33318">
        <ele>451.96</ele>
        <time>2014-03-02T10:09:43Z</time>
      </trkpt>
      <trkpt lat="45.58763" lon="3.33329">
        <ele>451.48</ele>
        <time>2014-03-02T10:09:53Z</time>
      </trkpt>
      <trkpt lat="45.58753" lon="3.33335">
        <ele>451.48</ele>
        <time>2014-03-02T10:09:57Z</time>
      </trkpt>
      <trkpt lat="45.58741" lon="3.33346">
        <ele>451</ele>
        <time>2014-03-02T10:10:03Z</time>
      </trkpt>
      <trkpt lat="45.58717" lon="3.33366">
        <ele>450.52</ele>
        <time>2014-03-02T10:10:15Z</time>
      </trkpt>
      <trkpt lat="45.58691" lon="3.33388">
        <ele>449.07</ele>
        <time>2014-03-02T10:10:27Z</time>
      </trkpt>
      <trkpt lat="45.58671" lon="3.33403">
        <ele>448.59</ele>
        <time>2014-03-02T10:10:37Z</time>
      </trkpt>
      <trkpt lat="45.58644" lon="3.33423">
        <ele>446.19</ele>
        <time>2014-03-02T10:10:48Z</time>
      </trkpt>
      <trkpt lat="45.58615" lon="3.33438">
        <ele>443.79</ele>
        <time>2014-03-02T10:10:59Z</time>
      </trkpt>
      <trkpt lat="45.58611" lon="3.33439">
        <ele>443.79</ele>
        <time>2014-03-02T10:11:01Z</time>
      </trkpt>
      <trkpt lat="45.58586" lon="3.33453">
        <ele>440.9</ele>
        <time>2014-03-02T10:11:11Z</time>
      </trkpt>
      <trkpt lat="45.58571" lon="3.33458">
        <ele>438.98</ele>
        <time>2014-03-02T10:11:17Z</time>
      </trkpt>
      <trkpt lat="45.58555" lon="3.33462">
        <ele>437.06</ele>
        <time>2014-03-02T10:11:23Z</time>
      </trkpt>
      <trkpt lat="45.58523" lon="3.33465">
        <ele>435.13</ele>
        <time>2014-03-02T10:11:34Z</time>
      </trkpt>
      <trkpt lat="45.58521" lon="3.33467">
        <ele>434.65</ele>
        <time>2014-03-02T10:11:35Z</time>
      </trkpt>
      <trkpt lat="45.58516" lon="3.3348">
        <ele>434.65</ele>
        <time>2014-03-02T10:11:39Z</time>
      </trkpt>
      <trkpt lat="45.58511" lon="3.33495">
        <ele>437.06</ele>
        <time>2014-03-02T10:11:43Z</time>
      </trkpt>
      <trkpt lat="45.5851" lon="3.33499">
        <ele>427.92</ele>
        <time>2014-03-02T10:11:44Z</time>
      </trkpt>
      <trkpt lat="45.5851" lon="3.33502">
        <ele>433.69</ele>
        <time>2014-03-02T10:11:45Z</time>
      </trkpt>
      <trkpt lat="45.58507" lon="3.33513">
        <ele>430.81</ele>
        <time>2014-03-02T10:11:48Z</time>
      </trkpt>
      <trkpt lat="45.58506" lon="3.3352">
        <ele>438.5</ele>
        <time>2014-03-02T10:11:50Z</time>
      </trkpt>
      <trkpt lat="45.58505" lon="3.33524">
        <ele>430.81</ele>
        <time>2014-03-02T10:11:51Z</time>
      </trkpt>
      <trkpt lat="45.58502" lon="3.33536">
        <ele>427.44</ele>
        <time>2014-03-02T10:11:54Z</time>
      </trkpt>
      <trkpt lat="45.58501" lon="3.33539">
        <ele>432.73</ele>
        <time>2014-03-02T10:11:55Z</time>
      </trkpt>
      <trkpt lat="45.585" lon="3.33543">
        <ele>430.33</ele>
        <time>2014-03-02T10:11:56Z</time>
      </trkpt>
      <trkpt lat="45.5849" lon="3.33565">
        <ele>429.37</ele>
        <time>2014-03-02T10:12:03Z</time>
      </trkpt>
      <trkpt lat="45.58487" lon="3.33578">
        <ele>428.4</ele>
        <time>2014-03-02T10:12:06Z</time>
      </trkpt>
      <trkpt lat="45.58469" lon="3.33604">
        <ele>424.56</ele>
        <time>2014-03-02T10:12:16Z</time>
      </trkpt>
      <trkpt lat="45.58466" lon="3.33609">
        <ele>423.12</ele>
        <time>2014-03-02T10:12:18Z</time>
      </trkpt>
      <trkpt lat="45.58463" lon="3.33621">
        <ele>422.16</ele>
        <time>2014-03-02T10:12:21Z</time>
      </trkpt>
      <trkpt lat="45.58463" lon="3.33625">
        <ele>422.16</ele>
        <time>2014-03-02T10:12:22Z</time>
      </trkpt>
      <trkpt lat="45.58463" lon="3.33637">
        <ele>420.71</ele>
        <time>2014-03-02T10:12:24Z</time>
      </trkpt>
      <trkpt lat="45.58464" lon="3.33642">
        <ele>420.71</ele>
        <time>2014-03-02T10:12:25Z</time>
      </trkpt>
      <trkpt lat="45.58466" lon="3.33646">
        <ele>420.71</ele>
        <time>2014-03-02T10:12:26Z</time>
      </trkpt>
      <trkpt lat="45.58467" lon="3.33648">
        <ele>420.71</ele>
        <time>2014-03-02T10:12:27Z</time>
      </trkpt>
      <trkpt lat="45.58468" lon="3.3365">
        <ele>420.23</ele>
        <time>2014-03-02T10:12:28Z</time>
      </trkpt>
      <trkpt lat="45.5847" lon="3.33651">
        <ele>420.23</ele>
        <time>2014-03-02T10:12:29Z</time>
      </trkpt>
      <trkpt lat="45.58472" lon="3.33653">
        <ele>420.23</ele>
        <time>2014-03-02T10:12:30Z</time>
      </trkpt>
      <trkpt lat="45.58473" lon="3.33655">
        <ele>419.75</ele>
        <time>2014-03-02T10:12:31Z</time>
      </trkpt>
      <trkpt lat="45.58474" lon="3.33658">
        <ele>419.75</ele>
        <time>2014-03-02T10:12:32Z</time>
      </trkpt>
      <trkpt lat="45.58476" lon="3.3366">
        <ele>419.27</ele>
        <time>2014-03-02T10:12:33Z</time>
      </trkpt>
      <trkpt lat="45.58478" lon="3.33661">
        <ele>419.75</ele>
        <time>2014-03-02T10:12:34Z</time>
      </trkpt>
      <trkpt lat="45.5848" lon="3.33663">
        <ele>419.75</ele>
        <time>2014-03-02T10:12:35Z</time>
      </trkpt>
      <trkpt lat="45.58483" lon="3.33664">
        <ele>419.75</ele>
        <time>2014-03-02T10:12:36Z</time>
      </trkpt>
      <trkpt lat="45.58485" lon="3.33665">
        <ele>419.27</ele>
        <time>2014-03-02T10:12:37Z</time>
      </trkpt>
      <trkpt lat="45.58487" lon="3.33666">
        <ele>419.27</ele>
        <time>2014-03-02T10:12:38Z</time>
      </trkpt>
      <trkpt lat="45.58489" lon="3.33667">
        <ele>419.75</ele>
        <time>2014-03-02T10:12:39Z</time>
      </trkpt>
      <trkpt lat="45.58491" lon="3.33669">
        <ele>419.27</ele>
        <time>2014-03-02T10:12:40Z</time>
      </trkpt>
      <trkpt lat="45.58493" lon="3.3367">
        <ele>418.79</ele>
        <time>2014-03-02T10:12:41Z</time>
      </trkpt>
      <trkpt lat="45.58495" lon="3.33673">
        <ele>419.27</ele>
        <time>2014-03-02T10:12:42Z</time>
      </trkpt>
      <trkpt lat="45.58497" lon="3.33675">
        <ele>418.79</ele>
        <time>2014-03-02T10:12:43Z</time>
      </trkpt>
      <trkpt lat="45.58501" lon="3.33676">
        <ele>419.27</ele>
        <time>2014-03-02T10:12:44Z</time>
      </trkpt>
      <trkpt lat="45.58503" lon="3.33677">
        <ele>418.31</ele>
        <time>2014-03-02T10:12:45Z</time>
      </trkpt>
      <trkpt lat="45.58505" lon="3.33678">
        <ele>418.79</ele>
        <time>2014-03-02T10:12:46Z</time>
      </trkpt>
      <trkpt lat="45.58507" lon="3.33679">
        <ele>418.79</ele>
        <time>2014-03-02T10:12:47Z</time>
      </trkpt>
      <trkpt lat="45.58509" lon="3.33681">
        <ele>418.31</ele>
        <time>2014-03-02T10:12:48Z</time>
      </trkpt>
      <trkpt lat="45.58512" lon="3.33681">
        <ele>418.79</ele>
        <time>2014-03-02T10:12:49Z</time>
      </trkpt>
      <trkpt lat="45.58515" lon="3.33682">
        <ele>418.31</ele>
        <time>2014-03-02T10:12:50Z</time>
      </trkpt>
      <trkpt lat="45.58517" lon="3.33684">
        <ele>417.83</ele>
        <time>2014-03-02T10:12:51Z</time>
      </trkpt>
      <trkpt lat="45.58521" lon="3.33687">
        <ele>418.31</ele>
        <time>2014-03-02T10:12:52Z</time>
      </trkpt>
      <trkpt lat="45.5853" lon="3.33697">
        <ele>417.35</ele>
        <time>2014-03-02T10:12:56Z</time>
      </trkpt>
      <trkpt lat="45.58532" lon="3.337">
        <ele>417.35</ele>
        <time>2014-03-02T10:12:57Z</time>
      </trkpt>
      <trkpt lat="45.58534" lon="3.33702">
        <ele>417.35</ele>
        <time>2014-03-02T10:12:58Z</time>
      </trkpt>
      <trkpt lat="45.58536" lon="3.33705">
        <ele>417.35</ele>
        <time>2014-03-02T10:12:59Z</time>
      </trkpt>
      <trkpt lat="45.58537" lon="3.33707">
        <ele>416.87</ele>
        <time>2014-03-02T10:13:00Z</time>
      </trkpt>
      <trkpt lat="45.58539" lon="3.3371">
        <ele>416.39</ele>
        <time>2014-03-02T10:13:01Z</time>
      </trkpt>
      <trkpt lat="45.58541" lon="3.33712">
        <ele>416.39</ele>
        <time>2014-03-02T10:13:02Z</time>
      </trkpt>
      <trkpt lat="45.58543" lon="3.33715">
        <ele>416.39</ele>
        <time>2014-03-02T10:13:03Z</time>
      </trkpt>
      <trkpt lat="45.58545" lon="3.33717">
        <ele>415.91</ele>
        <time>2014-03-02T10:13:04Z</time>
      </trkpt>
      <trkpt lat="45.58547" lon="3.3372">
        <ele>415.91</ele>
        <time>2014-03-02T10:13:05Z</time>
      </trkpt>
      <trkpt lat="45.58549" lon="3.33723">
        <ele>415.43</ele>
        <time>2014-03-02T10:13:06Z</time>
      </trkpt>
      <trkpt lat="45.58552" lon="3.33726">
        <ele>415.91</ele>
        <time>2014-03-02T10:13:07Z</time>
      </trkpt>
      <trkpt lat="45.58553" lon="3.33729">
        <ele>415.91</ele>
        <time>2014-03-02T10:13:08Z</time>
      </trkpt>
      <trkpt lat="45.58569" lon="3.33748">
        <ele>415.43</ele>
        <time>2014-03-02T10:13:15Z</time>
      </trkpt>
      <trkpt lat="45.58571" lon="3.3375">
        <ele>415.43</ele>
        <time>2014-03-02T10:13:16Z</time>
      </trkpt>
      <trkpt lat="45.58573" lon="3.33752">
        <ele>414.47</ele>
        <time>2014-03-02T10:13:17Z</time>
      </trkpt>
      <trkpt lat="45.58575" lon="3.33754">
        <ele>414.95</ele>
        <time>2014-03-02T10:13:18Z</time>
      </trkpt>
      <trkpt lat="45.58576" lon="3.33757">
        <ele>414.47</ele>
        <time>2014-03-02T10:13:19Z</time>
      </trkpt>
      <trkpt lat="45.58577" lon="3.33759">
        <ele>414.47</ele>
        <time>2014-03-02T10:13:20Z</time>
      </trkpt>
      <trkpt lat="45.58578" lon="3.33762">
        <ele>414.47</ele>
        <time>2014-03-02T10:13:21Z</time>
      </trkpt>
      <trkpt lat="45.58578" lon="3.33765">
        <ele>414.47</ele>
        <time>2014-03-02T10:13:22Z</time>
      </trkpt>
      <trkpt lat="45.58578" lon="3.33769">
        <ele>414.47</ele>
        <time>2014-03-02T10:13:23Z</time>
      </trkpt>
      <trkpt lat="45.58578" lon="3.33773">
        <ele>411.58</ele>
        <time>2014-03-02T10:13:24Z</time>
      </trkpt>
      <trkpt lat="45.58578" lon="3.33776">
        <ele>414.95</ele>
        <time>2014-03-02T10:13:25Z</time>
      </trkpt>
      <trkpt lat="45.58577" lon="3.33779">
        <ele>413.5</ele>
        <time>2014-03-02T10:13:26Z</time>
      </trkpt>
      <trkpt lat="45.58576" lon="3.33783">
        <ele>412.06</ele>
        <time>2014-03-02T10:13:27Z</time>
      </trkpt>
      <trkpt lat="45.58575" lon="3.33786">
        <ele>413.5</ele>
        <time>2014-03-02T10:13:28Z</time>
      </trkpt>
      <trkpt lat="45.58573" lon="3.33789">
        <ele>412.54</ele>
        <time>2014-03-02T10:13:29Z</time>
      </trkpt>
      <trkpt lat="45.58572" lon="3.33793">
        <ele>413.02</ele>
        <time>2014-03-02T10:13:30Z</time>
      </trkpt>
      <trkpt lat="45.58567" lon="3.33804">
        <ele>411.58</ele>
        <time>2014-03-02T10:13:34Z</time>
      </trkpt>
      <trkpt lat="45.58566" lon="3.33806">
        <ele>411.58</ele>
        <time>2014-03-02T10:13:35Z</time>
      </trkpt>
      <trkpt lat="45.58565" lon="3.33809">
        <ele>410.62</ele>
        <time>2014-03-02T10:13:36Z</time>
      </trkpt>
      <trkpt lat="45.58555" lon="3.3384">
        <ele>409.66</ele>
        <time>2014-03-02T10:13:45Z</time>
      </trkpt>
      <trkpt lat="45.58552" lon="3.33844">
        <ele>407.74</ele>
        <time>2014-03-02T10:13:49Z</time>
      </trkpt>
      <trkpt lat="45.58552" lon="3.33846">
        <ele>409.66</ele>
        <time>2014-03-02T10:13:50Z</time>
      </trkpt>
      <trkpt lat="45.58552" lon="3.33846">
        <ele>403.89</ele>
        <time>2014-03-02T10:13:52Z</time>
      </trkpt>
      <trkpt lat="45.58551" lon="3.33845">
        <ele>413.5</ele>
        <time>2014-03-02T10:13:53Z</time>
      </trkpt>
      <trkpt lat="45.58551" lon="3.33845">
        <ele>401.49</ele>
        <time>2014-03-02T10:13:54Z</time>
      </trkpt>
    </trkseg>
  </trk>
</gpx>